Observation data for Lake McClellan 2NW on 03/01/2021      Previous  Date  Next       Current Mesonet Observations  Soil Data  Daily Summary Page  Observations in Plain Language
KMC5 010600Z 03009KT 02/M08 A3021 RMK A01 T00151084  RH  048%=      5-min Rain = 0
KMC5 010601Z 03007KT 02/M08 A3021 RMK A01 T00151083  RH  048%=      5-min Rain = 0
KMC5 010602Z 03007KT 01/M08 A3021 RMK A01 T00141083  RH  048%=      5-min Rain = 0
KMC5 010603Z 03007KT 01/M08 A3021 RMK A01 T00141084  RH  048%=      5-min Rain = 0
KMC5 010604Z 03008KT 01/M08 A3021 RMK A01 T00141083  RH  048%=      5-min Rain = 0
KMC5 010605Z 03008KT 01/M08 A3021 RMK A01 T00141083  RH  049%=      5-min Rain = 0
KMC5 010606Z 03008KT 01/M08 A3021 RMK A01 T00141083  RH  049%=      5-min Rain = 0
KMC5 010607Z 03008KT 01/M08 A3021 RMK A01 T00141083  RH  048%=      5-min Rain = 0
KMC5 010608Z 03008KT 01/M08 A3021 RMK A01 T00141083  RH  049%=      5-min Rain = 0
KMC5 010609Z 03008KT 01/M08 A3021 RMK A01 T00141083  RH  049%=      5-min Rain = 0
KMC5 010610Z 03007KT 01/M08 A3022 RMK A01 T00141083  RH  048%=      5-min Rain = 0
KMC5 010611Z 03007KT 01/M08 A3022 RMK A01 T00141083  RH  049%=      5-min Rain = 0
KMC5 010612Z 03008KT 01/M08 A3022 RMK A01 T00141083  RH  049%=      5-min Rain = 0
KMC5 010613Z 02007KT 01/M08 A3021 RMK A01 T00141082  RH  049%=      5-min Rain = 0
KMC5 010614Z 02008KT 01/M08 A3021 RMK A01 T00141082  RH  049%=      5-min Rain = 0
KMC5 010615Z 02009KT 01/M08 A3021 RMK A01 T00131082  RH  049%=      5-min Rain = 0
KMC5 010616Z 02009KT 01/M08 A3021 RMK A01 T00131082  RH  049%=      5-min Rain = 0
KMC5 010617Z 02009KT 01/M08 A3021 RMK A01 T00131082  RH  049%=      5-min Rain = 0
KMC5 010618Z 02008KT 01/M08 A3021 RMK A01 T00131082  RH  049%=      5-min Rain = 0
KMC5 010619Z 02009KT 01/M08 A3021 RMK A01 T00131081  RH  049%=      5-min Rain = 0
KMC5 010620Z 02008KT 01/M08 A3021 RMK A01 T00131081  RH  050%=      5-min Rain = 0
KMC5 010621Z 02009KT 01/M08 A3021 RMK A01 T00121082  RH  050%=      5-min Rain = 0
KMC5 010622Z 02008KT 01/M08 A3021 RMK A01 T00121082  RH  049%=      5-min Rain = 0
KMC5 010623Z 02007KT 01/M08 A3021 RMK A01 T00121082  RH  049%=      5-min Rain = 0
KMC5 010624Z 02007KT 01/M08 A3021 RMK A01 T00121083  RH  049%=      5-min Rain = 0
KMC5 010625Z 02007KT 01/M08 A3021 RMK A01 T00121082  RH  049%=      5-min Rain = 0
KMC5 010626Z 02008KT 01/M08 A3021 RMK A01 T00111082  RH  050%=      5-min Rain = 0
KMC5 010627Z 02009KT 01/M08 A3021 RMK A01 T00101082  RH  050%=      5-min Rain = 0
KMC5 010628Z 02009KT 01/M08 A3021 RMK A01 T00101082  RH  050%=      5-min Rain = 0
KMC5 010629Z 02009KT 01/M08 A3021 RMK A01 T00091082  RH  051%=      5-min Rain = 0
KMC5 010630Z 02008KT 01/M08 A3021 RMK A01 T00091082  RH  051%=      5-min Rain = 0
KMC5 010631Z 02009KT 01/M08 A3021 RMK A01 T00091082  RH  051%=      5-min Rain = 0
KMC5 010632Z 02008KT 01/M08 A3021 RMK A01 T00081082  RH  051%=      5-min Rain = 0
KMC5 010633Z 02008KT 01/M08 A302 RMK A01 T00071082  RH  051%=      5-min Rain = 0
KMC5 010634Z 02008KT 01/M08 A302 RMK A01 T00071083  RH  051%=      5-min Rain = 0
KMC5 010635Z 02009KT 01/M08 A302 RMK A01 T00071083  RH  051%=      5-min Rain = 0
KMC5 010636Z 02009KT 01/M08 A302 RMK A01 T00071083  RH  051%=      5-min Rain = 0
KMC5 010637Z 02009KT 01/M08 A302 RMK A01 T00061083  RH  051%=      5-min Rain = 0
KMC5 010638Z 02009KT 01/M08 A302 RMK A01 T00061083  RH  052%=      5-min Rain = 0
KMC5 010639Z 01008KT 01/M08 A302 RMK A01 T00061083  RH  052%=      5-min Rain = 0
KMC5 010640Z 01010KT 01/M08 A302 RMK A01 T00051083  RH  052%=      5-min Rain = 0
KMC5 010641Z 01010KT 01/M08 A302 RMK A01 T00051083  RH  052%=      5-min Rain = 0
KMC5 010642Z 01010KT 01/M08 A302 RMK A01 T00051082  RH  052%=      5-min Rain = 0
KMC5 010643Z 01010KT 01/M08 A302 RMK A01 T00051082  RH  052%=      5-min Rain = 0
KMC5 010644Z 01010KT 01/M08 A302 RMK A01 T00051082  RH  052%=      5-min Rain = 0
KMC5 010645Z 01010KT 01/M08 A302 RMK A01 T00051082  RH  052%=      5-min Rain = 0
KMC5 010646Z 01009KT 00/M08 A302 RMK A01 T00041082  RH  052%=      5-min Rain = 0
KMC5 010647Z 01009KT 01/M08 A302 RMK A01 T00051081  RH  052%=      5-min Rain = 0
KMC5 010648Z 01010KT 01/M08 A302 RMK A01 T00051082  RH  052%=      5-min Rain = 0
KMC5 010649Z 01009KT 01/M08 A302 RMK A01 T00051082  RH  052%=      5-min Rain = 0
KMC5 010650Z 01009KT 01/M08 A302 RMK A01 T00051082  RH  052%=      5-min Rain = 0
KMC5 010651Z 02009KT 00/M08 A302 RMK A01 T00041082  RH  053%=      5-min Rain = 0
KMC5 010652Z 02008KT 00/M08 A302 RMK A01 T00041081  RH  053%=      5-min Rain = 0
KMC5 010653Z 02008KT 00/M08 A302 RMK A01 T00041081  RH  053%=      5-min Rain = 0
KMC5 010654Z 02008KT 00/M08 A302 RMK A01 T00041082  RH  053%=      5-min Rain = 0
KMC5 010655Z 03007KT 00/M08 A302 RMK A01 T00031081  RH  053%=      5-min Rain = 0
KMC5 010656Z 02007KT 00/M08 A302 RMK A01 T00031081  RH  053%=      5-min Rain = 0
KMC5 010657Z 02008KT 00/M08 A302 RMK A01 T00031081  RH  053%=      5-min Rain = 0
KMC5 010658Z 02008KT 00/M08 A302 RMK A01 T00031081  RH  053%=      5-min Rain = 0
KMC5 010659Z 02008KT 00/M08 A302 RMK A01 T00021081  RH  054%=      5-min Rain = 0
KMC5 010700Z 02007KT 00/M08 A302 RMK A01 T00031081  RH  054%=      5-min Rain = 0
KMC5 010701Z 02007KT 00/M08 A302 RMK A01 T00021080  RH  054%=      5-min Rain = 0
KMC5 010702Z 02008KT 00/M08 A302 RMK A01 T00021081  RH  054%=      5-min Rain = 0
KMC5 010703Z 02007KT 00/M08 A302 RMK A01 T00021081  RH  054%=      5-min Rain = 0
KMC5 010704Z 02007KT 00/M08 A302 RMK A01 T00031080  RH  054%=      5-min Rain = 0
KMC5 010705Z 02007KT 00/M08 A302 RMK A01 T00031080  RH  054%=      5-min Rain = 0
KMC5 010706Z 02007KT 00/M08 A3021 RMK A01 T00031080  RH  054%=      5-min Rain = 0
KMC5 010707Z 02008KT 00/M08 A3021 RMK A01 T00031080  RH  054%=      5-min Rain = 0
KMC5 010708Z 02007KT 00/M08 A3021 RMK A01 T00031080  RH  054%=      5-min Rain = 0
KMC5 010709Z 02008KT 00/M08 A3021 RMK A01 T00031080  RH  054%=      5-min Rain = 0
KMC5 010710Z 03008KT 00/M08 A3021 RMK A01 T00041080  RH  053%=      5-min Rain = 0
KMC5 010711Z 03007KT 01/M08 A3021 RMK A01 T00051079  RH  053%=      5-min Rain = 0
KMC5 010712Z 02007KT 00/M08 A3021 RMK A01 T00041079  RH  053%=      5-min Rain = 0
KMC5 010713Z 03008KT 01/M08 A3021 RMK A01 T00051079  RH  053%=      5-min Rain = 0
KMC5 010714Z 03008KT 01/M08 A3021 RMK A01 T00051080  RH  053%=      5-min Rain = 0
KMC5 010715Z 02008KT 01/M08 A3022 RMK A01 T00051080  RH  053%=      5-min Rain = 0
KMC5 010716Z 03008KT 01/M08 A3021 RMK A01 T00051079  RH  053%=      5-min Rain = 0
KMC5 010717Z 02007KT 01/M08 A3021 RMK A01 T00061079  RH  053%=      5-min Rain = 0
KMC5 010718Z 02007KT 01/M08 A3022 RMK A01 T00061079  RH  053%=      5-min Rain = 0
KMC5 010719Z 02008KT 01/M08 A3022 RMK A01 T00051079  RH  053%=      5-min Rain = 0
KMC5 010720Z 02008KT 01/M08 A3022 RMK A01 T00051079  RH  053%=      5-min Rain = 0
KMC5 010721Z 02008KT 01/M08 A3022 RMK A01 T00061079  RH  053%=      5-min Rain = 0
KMC5 010722Z 02008KT 01/M08 A3022 RMK A01 T00061079  RH  053%=      5-min Rain = 0
KMC5 010723Z 02009KT 01/M08 A3022 RMK A01 T00071079  RH  052%=      5-min Rain = 0
KMC5 010724Z 03008KT 01/M08 A3022 RMK A01 T00071079  RH  053%=      5-min Rain = 0
KMC5 010725Z 02007KT 01/M08 A3022 RMK A01 T00081078  RH  053%=      5-min Rain = 0
KMC5 010726Z 02008KT 01/M08 A3022 RMK A01 T00071079  RH  053%=      5-min Rain = 0
KMC5 010727Z 03008KT 01/M08 A3022 RMK A01 T00071079  RH  053%=      5-min Rain = 0
KMC5 010728Z 03008KT 01/M08 A3022 RMK A01 T00071079  RH  052%=      5-min Rain = 0
KMC5 010729Z 03008KT 01/M08 A3022 RMK A01 T00071079  RH  053%=      5-min Rain = 0
KMC5 010730Z 03008KT 01/M08 A3022 RMK A01 T00071079  RH  053%=      5-min Rain = 0
KMC5 010731Z 03008KT 01/M08 A3022 RMK A01 T00071078  RH  053%=      5-min Rain = 0
KMC5 010732Z 02007KT 01/M08 A3022 RMK A01 T00071079  RH  053%=      5-min Rain = 0
KMC5 010733Z 03008KT 01/M08 A3022 RMK A01 T00071079  RH  053%=      5-min Rain = 0
KMC5 010734Z 03008KT 01/M08 A3022 RMK A01 T00071078  RH  053%=      5-min Rain = 0
KMC5 010735Z 03007KT 01/M08 A3022 RMK A01 T00071078  RH  053%=      5-min Rain = 0
KMC5 010736Z 03006KT 01/M08 A3023 RMK A01 T00071078  RH  053%=      5-min Rain = 0
KMC5 010737Z 03007KT 01/M08 A3023 RMK A01 T00071078  RH  053%=      5-min Rain = 0
KMC5 010738Z 03007KT 01/M08 A3023 RMK A01 T00071078  RH  053%=      5-min Rain = 0
KMC5 010739Z 03007KT 01/M08 A3023 RMK A01 T00071078  RH  053%=      5-min Rain = 0
KMC5 010740Z 04007KT 01/M08 A3023 RMK A01 T00071078  RH  053%=      5-min Rain = 0
KMC5 010741Z 04007KT 01/M08 A3023 RMK A01 T00071078  RH  053%=      5-min Rain = 0
KMC5 010742Z 04007KT 01/M08 A3023 RMK A01 T00071077  RH  053%=      5-min Rain = 0
KMC5 010743Z 04007KT 01/M08 A3023 RMK A01 T00061077  RH  054%=      5-min Rain = 0
KMC5 010744Z 04006KT 01/M08 A3023 RMK A01 T00061077  RH  054%=      5-min Rain = 0
KMC5 010745Z 04006KT 01/M08 A3023 RMK A01 T00051077  RH  054%=      5-min Rain = 0
KMC5 010746Z 04006KT 01/M08 A3023 RMK A01 T00061077  RH  054%=      5-min Rain = 0
KMC5 010747Z 04006KT 01/M08 A3023 RMK A01 T00051077  RH  054%=      5-min Rain = 0
KMC5 010748Z 04006KT 01/M08 A3023 RMK A01 T00051077  RH  054%=      5-min Rain = 0
KMC5 010749Z 04007KT 01/M08 A3023 RMK A01 T00051077  RH  054%=      5-min Rain = 0
KMC5 010750Z 04007KT 00/M08 A3023 RMK A01 T00041078  RH  054%=      5-min Rain = 0
KMC5 010751Z 04007KT 00/M08 A3023 RMK A01 T00031077  RH  055%=      5-min Rain = 0
KMC5 010752Z 04007KT 00/M08 A3023 RMK A01 T00031077  RH  055%=      5-min Rain = 0
KMC5 010753Z 04007KT 00/M08 A3023 RMK A01 T00021077  RH  055%=      5-min Rain = 0
KMC5 010754Z 04007KT 00/M08 A3023 RMK A01 T00021077  RH  055%=      5-min Rain = 0
KMC5 010755Z 04007KT 00/M08 A3023 RMK A01 T00021077  RH  055%=      5-min Rain = 0
KMC5 010756Z 04007KT 00/M08 A3023 RMK A01 T00021077  RH  055%=      5-min Rain = 0
KMC5 010757Z 04007KT 00/M08 A3023 RMK A01 T00021077  RH  055%=      5-min Rain = 0
KMC5 010758Z 04008KT 00/M08 A3023 RMK A01 T00021077  RH  055%=      5-min Rain = 0
KMC5 010759Z 04008KT 00/M08 A3023 RMK A01 T00021077  RH  055%=      5-min Rain = 0
KMC5 010800Z 04007KT 00/M08 A3023 RMK A01 T00021078  RH  055%=      5-min Rain = 0
KMC5 010801Z 04007KT 00/M08 A3023 RMK A01 T00021078  RH  055%=      5-min Rain = 0
KMC5 010802Z 03007KT 00/M08 A3023 RMK A01 T00021078  RH  055%=      5-min Rain = 0
KMC5 010803Z 03008KT 00/M08 A3023 RMK A01 T00031078  RH  055%=      5-min Rain = 0
KMC5 010804Z 03008KT 00/M08 A3024 RMK A01 T00031078  RH  054%=      5-min Rain = 0
KMC5 010805Z 03008KT 00/M08 A3024 RMK A01 T00031078  RH  054%=      5-min Rain = 0
KMC5 010806Z 03007KT 00/M08 A3024 RMK A01 T00031079  RH  054%=      5-min Rain = 0
KMC5 010807Z 03007KT 00/M08 A3024 RMK A01 T00031078  RH  054%=      5-min Rain = 0
KMC5 010808Z 03007KT 00/M08 A3024 RMK A01 T00031078  RH  054%=      5-min Rain = 0
KMC5 010809Z 03006KT 00/M08 A3024 RMK A01 T00021078  RH  055%=      5-min Rain = 0
KMC5 010810Z 03006KT 00/M08 A3024 RMK A01 T00021078  RH  055%=      5-min Rain = 0
KMC5 010811Z 03006KT 00/M08 A3025 RMK A01 T00021078  RH  055%=      5-min Rain = 0
KMC5 010812Z 03006KT 00/M08 A3025 RMK A01 T00021078  RH  055%=      5-min Rain = 0
KMC5 010813Z 03006KT 00/M08 A3025 RMK A01 T00021078  RH  055%=      5-min Rain = 0
KMC5 010814Z 03006KT 00/M08 A3025 RMK A01 T00021079  RH  055%=      5-min Rain = 0
KMC5 010815Z 03006KT 00/M08 A3025 RMK A01 T00021079  RH  054%=      5-min Rain = 0
KMC5 010816Z 03006KT 00/M08 A3025 RMK A01 T00021079  RH  054%=      5-min Rain = 0
KMC5 010817Z 03006KT 00/M08 A3025 RMK A01 T00021079  RH  054%=      5-min Rain = 0
KMC5 010818Z 03006KT 00/M08 A3025 RMK A01 T00021079  RH  054%=      5-min Rain = 0
KMC5 010819Z 03006KT 00/M08 A3025 RMK A01 T00031079  RH  054%=      5-min Rain = 0
KMC5 010820Z 03006KT 00/M08 A3026 RMK A01 T00031079  RH  054%=      5-min Rain = 0
KMC5 010821Z 03007KT 00/M08 A3026 RMK A01 T00031078  RH  054%=      5-min Rain = 0
KMC5 010822Z 04007KT 00/M08 A3026 RMK A01 T00031078  RH  054%=      5-min Rain = 0
KMC5 010823Z 04007KT 00/M08 A3026 RMK A01 T00031078  RH  054%=      5-min Rain = 0
KMC5 010824Z 04007KT 00/M08 A3026 RMK A01 T00021078  RH  055%=      5-min Rain = 0
KMC5 010825Z 04007KT 00/M08 A3026 RMK A01 T00021078  RH  055%=      5-min Rain = 0
KMC5 010826Z 03007KT 00/M08 A3025 RMK A01 T00021079  RH  055%=      5-min Rain = 0
KMC5 010827Z 03007KT 00/M08 A3025 RMK A01 T00021078  RH  055%=      5-min Rain = 0
KMC5 010828Z 03007KT 00/M08 A3025 RMK A01 T00021078  RH  055%=      5-min Rain = 0
KMC5 010829Z 03007KT 00/M08 A3025 RMK A01 T00021078  RH  055%=      5-min Rain = 0
KMC5 010830Z 03007KT 00/M08 A3025 RMK A01 T00021078  RH  055%=      5-min Rain = 0
KMC5 010831Z 03007KT 00/M08 A3025 RMK A01 T00021078  RH  055%=      5-min Rain = 0
KMC5 010832Z 03007KT 00/M08 A3025 RMK A01 T00021078  RH  055%=      5-min Rain = 0
KMC5 010833Z 03007KT 00/M08 A3025 RMK A01 T00031078  RH  055%=      5-min Rain = 0
KMC5 010834Z 03007KT 00/M08 A3025 RMK A01 T00031078  RH  054%=      5-min Rain = 0
KMC5 010835Z 02007KT 00/M08 A3025 RMK A01 T00031078  RH  054%=      5-min Rain = 0
KMC5 010836Z 02007KT 00/M08 A3025 RMK A01 T00041078  RH  054%=      5-min Rain = 0
KMC5 010837Z 02008KT 00/M08 A3025 RMK A01 T00041079  RH  054%=      5-min Rain = 0
KMC5 010838Z 02008KT 00/M08 A3025 RMK A01 T00041078  RH  054%=      5-min Rain = 0
KMC5 010839Z 02008KT 00/M08 A3025 RMK A01 T00031078  RH  054%=      5-min Rain = 0
KMC5 010840Z 02008KT 00/M08 A3025 RMK A01 T00031078  RH  055%=      5-min Rain = 0
KMC5 010841Z 02008KT 00/M08 A3025 RMK A01 T00031078  RH  055%=      5-min Rain = 0
KMC5 010842Z 02009KT 00/M08 A3025 RMK A01 T00031078  RH  055%=      5-min Rain = 0
KMC5 010843Z 02008KT 00/M08 A3025 RMK A01 T00031078  RH  055%=      5-min Rain = 0
KMC5 010844Z 02008KT 00/M08 A3025 RMK A01 T00031077  RH  055%=      5-min Rain = 0
KMC5 010845Z 02008KT 00/M08 A3025 RMK A01 T00031078  RH  055%=      5-min Rain = 0
KMC5 010846Z 02008KT 00/M08 A3025 RMK A01 T00031078  RH  055%=      5-min Rain = 0
KMC5 010847Z 02008KT 00/M08 A3025 RMK A01 T00031078  RH  054%=      5-min Rain = 0
KMC5 010848Z 02008KT 00/M08 A3025 RMK A01 T00031079  RH  054%=      5-min Rain = 0
KMC5 010849Z 02008KT 00/M08 A3025 RMK A01 T00031078  RH  054%=      5-min Rain = 0
KMC5 010850Z 02008KT 00/M08 A3025 RMK A01 T00031078  RH  054%=      5-min Rain = 0
KMC5 010851Z 02009KT 00/M08 A3025 RMK A01 T00031078  RH  054%=      5-min Rain = 0
KMC5 010852Z 02009KT 00/M08 A3024 RMK A01 T00031079  RH  054%=      5-min Rain = 0
KMC5 010853Z 01008KT 00/M08 A3024 RMK A01 T00031079  RH  054%=      5-min Rain = 0
KMC5 010854Z 01009KT 00/M08 A3024 RMK A01 T00031078  RH  054%=      5-min Rain = 0
KMC5 010855Z 01009KT 00/M08 A3024 RMK A01 T00031078  RH  055%=      5-min Rain = 0
KMC5 010856Z 01009KT 00/M08 A3024 RMK A01 T00021078  RH  055%=      5-min Rain = 0
KMC5 010857Z 01009KT 00/M08 A3024 RMK A01 T00021079  RH  055%=      5-min Rain = 0
KMC5 010858Z 02009KT 00/M08 A3024 RMK A01 T00021078  RH  055%=      5-min Rain = 0
KMC5 010859Z 01009KT 00/M08 A3024 RMK A01 T00011079  RH  055%=      5-min Rain = 0
KMC5 010900Z 02009KT 00/M08 A3024 RMK A01 T00011079  RH  055%=      5-min Rain = 0
KMC5 010901Z 01009KT 00/M08 A3024 RMK A01 T00011079  RH  055%=      5-min Rain = 0
KMC5 010902Z 01009KT 00/M08 A3024 RMK A01 T00011079  RH  055%=      5-min Rain = 0
KMC5 010903Z 01009KT 00/08 A3024 RMK A01 T00000-79  RH  055%=      5-min Rain = 0
KMC5 010904Z 01009KT 00/08 A3024 RMK A01 T00000-79  RH  055%=      5-min Rain = 0
KMC5 010905Z 01009KT 00/08 A3023 RMK A01 T00000-78  RH  055%=      5-min Rain = 0
KMC5 010906Z 01008KT 00/08 A3023 RMK A01 T00-00-79  RH  055%=      5-min Rain = 0
KMC5 010907Z 01008KT 00/08 A3023 RMK A01 T00-00-78  RH  056%=      5-min Rain = 0
KMC5 010908Z 01008KT M00/M08 A3023 RMK A01 T10011078  RH  056%=      5-min Rain = 0
KMC5 010909Z 01008KT M00/M08 A3023 RMK A01 T10011078  RH  056%=      5-min Rain = 0
KMC5 010910Z 01008KT M00/M08 A3023 RMK A01 T10011078  RH  056%=      5-min Rain = 0
KMC5 010911Z 01008KT M00/M08 A3023 RMK A01 T10011078  RH  056%=      5-min Rain = 0
KMC5 010912Z 01008KT M00/M08 A3023 RMK A01 T10021078  RH  056%=      5-min Rain = 0
KMC5 010913Z 01008KT M00/M08 A3023 RMK A01 T10011078  RH  056%=      5-min Rain = 0
KMC5 010914Z 01007KT M00/M08 A3023 RMK A01 T10011077  RH  057%=      5-min Rain = 0
KMC5 010915Z 01008KT M00/M08 A3023 RMK A01 T10021078  RH  057%=      5-min Rain = 0
KMC5 010916Z 01008KT M00/M08 A3023 RMK A01 T10021078  RH  056%=      5-min Rain = 0
KMC5 010917Z 01007KT M00/M08 A3023 RMK A01 T10021078  RH  056%=      5-min Rain = 0
KMC5 010918Z 01008KT M00/M08 A3023 RMK A01 T10011078  RH  056%=      5-min Rain = 0
KMC5 010919Z 01007KT M00/M08 A3023 RMK A01 T10011078  RH  056%=      5-min Rain = 0
KMC5 010920Z 01008KT M00/M08 A3023 RMK A01 T10011078  RH  056%=      5-min Rain = 0
KMC5 010921Z 01007KT M00/M08 A3023 RMK A01 T10011078  RH  056%=      5-min Rain = 0
KMC5 010922Z 01007KT M00/M08 A3023 RMK A01 T10011078  RH  056%=      5-min Rain = 0
KMC5 010923Z 01008KT M00/M08 A3023 RMK A01 T10011077  RH  056%=      5-min Rain = 0
KMC5 010924Z 01009KT M00/M08 A3023 RMK A01 T10011078  RH  056%=      5-min Rain = 0
KMC5 010925Z 01008KT M00/M08 A3023 RMK A01 T10011078  RH  056%=      5-min Rain = 0
KMC5 010926Z 01009KT M00/M08 A3023 RMK A01 T10011079  RH  056%=      5-min Rain = 0
KMC5 010927Z 01008KT 00/08 A3023 RMK A01 T00-00-78  RH  056%=      5-min Rain = 0
KMC5 010928Z 01008KT M00/M08 A3023 RMK A01 T10011078  RH  056%=      5-min Rain = 0
KMC5 010929Z 01009KT M00/M08 A3023 RMK A01 T10011078  RH  056%=      5-min Rain = 0
KMC5 010930Z 02009KT M00/M08 A3023 RMK A01 T10021077  RH  057%=      5-min Rain = 0
KMC5 010931Z 01009KT M00/M08 A3023 RMK A01 T10021078  RH  056%=      5-min Rain = 0
KMC5 010932Z 01009KT M00/M08 A3022 RMK A01 T10021079  RH  056%=      5-min Rain = 0
KMC5 010933Z 01009KT M00/M08 A3022 RMK A01 T10021079  RH  056%=      5-min Rain = 0
KMC5 010934Z 01009KT M00/M08 A3022 RMK A01 T10021078  RH  056%=      5-min Rain = 0
KMC5 010935Z 01010KT M00/M08 A3022 RMK A01 T10021079  RH  056%=      5-min Rain = 0
KMC5 010936Z 01010KT M00/M08 A3022 RMK A01 T10031079  RH  056%=      5-min Rain = 0
KMC5 010937Z 01010KT M00/M08 A3022 RMK A01 T10031079  RH  056%=      5-min Rain = 0
KMC5 010938Z 01011KT M00/M08 A3021 RMK A01 T10031079  RH  057%=      5-min Rain = 0
KMC5 010939Z 01011KT M00/M08 A3021 RMK A01 T10041079  RH  057%=      5-min Rain = 0
KMC5 010940Z 01012KT M01/M08 A3021 RMK A01 T10051080  RH  057%=      5-min Rain = 0
KMC5 010941Z 01011KT M01/M08 A3021 RMK A01 T10061079  RH  058%=      5-min Rain = 0
KMC5 010942Z 01011KT M01/M08 A3021 RMK A01 T10071079  RH  058%=      5-min Rain = 0
KMC5 010943Z 01011KT M01/M08 A3021 RMK A01 T10071079  RH  058%=      5-min Rain = 0
KMC5 010944Z 01011KT M01/M08 A3021 RMK A01 T10071079  RH  058%=      5-min Rain = 0
KMC5 010945Z 01011KT M01/M08 A3021 RMK A01 T10081079  RH  058%=      5-min Rain = 0
KMC5 010946Z 01010KT M01/M08 A3021 RMK A01 T10081079  RH  059%=      5-min Rain = 0
KMC5 010947Z 01011KT M01/M08 A3021 RMK A01 T10101080  RH  059%=      5-min Rain = 0
KMC5 010948Z 01010KT M01/M08 A3021 RMK A01 T10101080  RH  059%=      5-min Rain = 0
KMC5 010949Z 00011KT M01/M08 A3021 RMK A01 T10111080  RH  059%=      5-min Rain = 0
KMC5 010950Z 01011KT M01/M08 A3021 RMK A01 T10101080  RH  059%=      5-min Rain = 0
KMC5 010951Z 00010KT M01/M08 A3021 RMK A01 T10111080  RH  059%=      5-min Rain = 0
KMC5 010952Z 00010KT M01/M08 A3021 RMK A01 T10111080  RH  059%=      5-min Rain = 0
KMC5 010953Z 01011KT M01/M08 A3021 RMK A01 T10111080  RH  060%=      5-min Rain = 0
KMC5 010954Z 00011KT M01/M08 A3021 RMK A01 T10111080  RH  060%=      5-min Rain = 0
KMC5 010955Z 00011KT M01/M08 A3021 RMK A01 T10121080  RH  060%=      5-min Rain = 0
KMC5 010956Z 00011KT M01/M08 A3021 RMK A01 T10121080  RH  060%=      5-min Rain = 0
KMC5 010957Z 01010KT M01/M08 A3021 RMK A01 T10121081  RH  060%=      5-min Rain = 0
KMC5 010958Z 01011KT M01/M08 A3022 RMK A01 T10121080  RH  060%=      5-min Rain = 0
KMC5 010959Z 01010KT M01/M08 A3022 RMK A01 T10121080  RH  060%=      5-min Rain = 0
KMC5 011000Z 01010KT M01/M08 A3022 RMK A01 T10121080  RH  060%=      5-min Rain = 0
KMC5 011001Z 00010KT M01/M08 A3022 RMK A01 T10121081  RH  060%=      5-min Rain = 0
KMC5 011002Z 00010KT M01/M08 A3022 RMK A01 T10121080  RH  060%=      5-min Rain = 0
KMC5 011003Z 00010KT M01/M08 A3022 RMK A01 T10131081  RH  060%=      5-min Rain = 0
KMC5 011004Z 00010KT M01/M08 A3022 RMK A01 T10131081  RH  060%=      5-min Rain = 0
KMC5 011005Z 00010KT M01/M08 A3022 RMK A01 T10141080  RH  060%=      5-min Rain = 0
KMC5 011006Z 00010KT M01/M08 A3022 RMK A01 T10141080  RH  061%=      5-min Rain = 0
KMC5 011007Z 00010KT M01/M08 A3022 RMK A01 T10141080  RH  061%=      5-min Rain = 0
KMC5 011008Z 00010KT M01/M08 A3022 RMK A01 T10141080  RH  061%=      5-min Rain = 0
KMC5 011009Z 01010KT M02/M08 A3022 RMK A01 T10151081  RH  061%=      5-min Rain = 0
KMC5 011010Z 01010KT M02/M08 A3022 RMK A01 T10151080  RH  061%=      5-min Rain = 0
KMC5 011011Z 01010KT M02/M08 A3022 RMK A01 T10151080  RH  061%=      5-min Rain = 0
KMC5 011012Z 01011KT M02/M08 A3022 RMK A01 T10161080  RH  061%=      5-min Rain = 0
KMC5 011013Z 00010KT M02/M08 A3022 RMK A01 T10151080  RH  061%=      5-min Rain = 0
KMC5 011014Z 00011KT M02/M08 A3022 RMK A01 T10151080  RH  061%=      5-min Rain = 0
KMC5 011015Z 00011KT M01/M08 A3022 RMK A01 T10141080  RH  061%=      5-min Rain = 0
KMC5 011016Z 00010KT M01/M08 A3022 RMK A01 T10141080  RH  061%=      5-min Rain = 0
KMC5 011017Z 00011KT M01/M08 A3022 RMK A01 T10131080  RH  061%=      5-min Rain = 0
KMC5 011018Z 00011KT M01/M08 A3022 RMK A01 T10131079  RH  061%=      5-min Rain = 0
KMC5 011019Z 36010KT M01/M08 A3022 RMK A01 T10121079  RH  060%=      5-min Rain = 0
KMC5 011020Z 00011KT M01/M08 A3022 RMK A01 T10121079  RH  060%=      5-min Rain = 0
KMC5 011021Z 00011KT M01/M08 A3022 RMK A01 T10111079  RH  060%=      5-min Rain = 0
KMC5 011022Z 00011KT M01/M08 A3022 RMK A01 T10111078  RH  060%=      5-min Rain = 0
KMC5 011023Z 00011KT M01/M08 A3022 RMK A01 T10111078  RH  060%=      5-min Rain = 0
KMC5 011024Z 00010KT M01/M08 A3022 RMK A01 T10111078  RH  060%=      5-min Rain = 0
KMC5 011025Z 00011KT M01/M08 A3022 RMK A01 T10101078  RH  060%=      5-min Rain = 0
KMC5 011026Z 00010KT M01/M08 A3023 RMK A01 T10101078  RH  060%=      5-min Rain = 0
KMC5 011027Z 00010KT M01/M08 A3023 RMK A01 T10101077  RH  060%=      5-min Rain = 0
KMC5 011028Z 00009KT M01/M08 A3023 RMK A01 T10091077  RH  060%=      5-min Rain = 0
KMC5 011029Z 01009KT M01/M08 A3023 RMK A01 T10091078  RH  060%=      5-min Rain = 0
KMC5 011030Z 01009KT M01/M08 A3023 RMK A01 T10091078  RH  060%=      5-min Rain = 0
KMC5 011031Z 01009KT M01/M08 A3023 RMK A01 T10091078  RH  060%=      5-min Rain = 0
KMC5 011032Z 01010KT M01/M08 A3023 RMK A01 T10091078  RH  060%=      5-min Rain = 0
KMC5 011033Z 01009KT M01/M08 A3023 RMK A01 T10081077  RH  060%=      5-min Rain = 0
KMC5 011034Z 01010KT M01/M08 A3023 RMK A01 T10081077  RH  059%=      5-min Rain = 0
KMC5 011035Z 01010KT M01/M08 A3023 RMK A01 T10081078  RH  059%=      5-min Rain = 0
KMC5 011036Z 01010KT M01/M08 A3023 RMK A01 T10081078  RH  059%=      5-min Rain = 0
KMC5 011037Z 01009KT M01/M08 A3023 RMK A01 T10071077  RH  059%=      5-min Rain = 0
KMC5 011038Z 01010KT M01/M08 A3023 RMK A01 T10071077  RH  059%=      5-min Rain = 0
KMC5 011039Z 01010KT M01/M08 A3023 RMK A01 T10071077  RH  059%=      5-min Rain = 0
KMC5 011040Z 01010KT M01/M08 A3024 RMK A01 T10071078  RH  059%=      5-min Rain = 0
KMC5 011041Z 01009KT M01/M08 A3024 RMK A01 T10071077  RH  059%=      5-min Rain = 0
KMC5 011042Z 01009KT M01/M08 A3024 RMK A01 T10071078  RH  059%=      5-min Rain = 0
KMC5 011043Z 01010KT M01/M08 A3024 RMK A01 T10071078  RH  059%=      5-min Rain = 0
KMC5 011044Z 01009KT M01/M08 A3024 RMK A01 T10071078  RH  059%=      5-min Rain = 0
KMC5 011045Z 01010KT M01/M08 A3024 RMK A01 T10071077  RH  059%=      5-min Rain = 0
KMC5 011046Z 01010KT M01/M08 A3024 RMK A01 T10071077  RH  059%=      5-min Rain = 0
KMC5 011047Z 01010KT M01/M08 A3024 RMK A01 T10071078  RH  059%=      5-min Rain = 0
KMC5 011048Z 02009KT M01/M08 A3025 RMK A01 T10061078  RH  058%=      5-min Rain = 0
KMC5 011049Z 01010KT M01/M08 A3025 RMK A01 T10061077  RH  058%=      5-min Rain = 0
KMC5 011050Z 02009KT M01/M08 A3025 RMK A01 T10061077  RH  059%=      5-min Rain = 0
KMC5 011051Z 02009KT M01/M08 A3025 RMK A01 T10061077  RH  059%=      5-min Rain = 0
KMC5 011052Z 02009KT M01/M08 A3025 RMK A01 T10061077  RH  058%=      5-min Rain = 0
KMC5 011053Z 02009KT M01/M08 A3025 RMK A01 T10061077  RH  058%=      5-min Rain = 0
KMC5 011054Z 02008KT M01/M08 A3025 RMK A01 T10051077  RH  058%=      5-min Rain = 0
KMC5 011055Z 02007KT M01/M08 A3025 RMK A01 T10051077  RH  058%=      5-min Rain = 0
KMC5 011056Z 03007KT M01/M08 A3026 RMK A01 T10051076  RH  059%=      5-min Rain = 0
KMC5 011057Z 03008KT M01/M08 A3026 RMK A01 T10051076  RH  059%=      5-min Rain = 0
KMC5 011058Z 03007KT M01/M08 A3026 RMK A01 T10051076  RH  059%=      5-min Rain = 0
KMC5 011059Z 05006KT M01/M08 A3026 RMK A01 T10061076  RH  059%=      5-min Rain = 0
KMC5 011100Z 06006KT M01/M08 A3026 RMK A01 T10061076  RH  059%=      5-min Rain = 0
KMC5 011101Z 06006KT M01/M08 A3026 RMK A01 T10071076  RH  060%=      5-min Rain = 0
KMC5 011102Z 05006KT M01/M08 A3026 RMK A01 T10081076  RH  060%=      5-min Rain = 0
KMC5 011103Z 04006KT M01/M08 A3026 RMK A01 T10081077  RH  060%=      5-min Rain = 0
KMC5 011104Z 03007KT M01/M08 A3026 RMK A01 T10081077  RH  060%=      5-min Rain = 0
KMC5 011105Z 02007KT M01/M08 A3027 RMK A01 T10071077  RH  059%=      5-min Rain = 0
KMC5 011106Z 02008KT M01/M08 A3027 RMK A01 T10071076  RH  059%=      5-min Rain = 0
KMC5 011107Z 02008KT M01/M08 A3027 RMK A01 T10071076  RH  060%=      5-min Rain = 0
KMC5 011108Z 02008KT M01/M08 A3027 RMK A01 T10071076  RH  059%=      5-min Rain = 0
KMC5 011109Z 02008KT M01/M08 A3027 RMK A01 T10061076  RH  059%=      5-min Rain = 0
KMC5 011110Z 02008KT M01/M08 A3027 RMK A01 T10061076  RH  059%=      5-min Rain = 0
KMC5 011111Z 02006KT M01/M08 A3027 RMK A01 T10061076  RH  059%=      5-min Rain = 0
KMC5 011112Z 03005KT M01/M08 A3027 RMK A01 T10061076  RH  059%=      5-min Rain = 0
KMC5 011113Z 04006KT M01/M08 A3027 RMK A01 T10071076  RH  060%=      5-min Rain = 0
KMC5 011114Z 04006KT M01/M08 A3027 RMK A01 T10071075  RH  060%=      5-min Rain = 0
KMC5 011115Z 04007KT M01/M08 A3028 RMK A01 T10071075  RH  060%=      5-min Rain = 0
KMC5 011116Z 04006KT M01/M08 A3028 RMK A01 T10071075  RH  060%=      5-min Rain = 0
KMC5 011117Z 04006KT M01/M08 A3028 RMK A01 T10071075  RH  060%=      5-min Rain = 0
KMC5 011118Z 04005KT M01/M07 A3028 RMK A01 T10071074  RH  060%=      5-min Rain = 0
KMC5 011119Z 04006KT M01/M08 A3028 RMK A01 T10071075  RH  060%=      5-min Rain = 0
KMC5 011120Z 04006KT M01/M08 A3028 RMK A01 T10071076  RH  060%=      5-min Rain = 0
KMC5 011121Z 03007KT M01/M08 A3028 RMK A01 T10071076  RH  060%=      5-min Rain = 0
KMC5 011122Z 04006KT M01/M08 A3028 RMK A01 T10061076  RH  059%=      5-min Rain = 0
KMC5 011123Z 03007KT M01/M08 A3028 RMK A01 T10061075  RH  059%=      5-min Rain = 0
KMC5 011124Z 03006KT M01/M08 A3028 RMK A01 T10061075  RH  059%=      5-min Rain = 0
KMC5 011125Z 03006KT M01/M08 A3028 RMK A01 T10061075  RH  060%=      5-min Rain = 0
KMC5 011126Z 03006KT M01/M07 A3028 RMK A01 T10071074  RH  060%=      5-min Rain = 0
KMC5 011127Z 03006KT M01/M08 A3027 RMK A01 T10071075  RH  060%=      5-min Rain = 0
KMC5 011128Z 04007KT M01/M08 A3027 RMK A01 T10081075  RH  060%=      5-min Rain = 0
KMC5 011129Z 03007KT M01/M08 A3027 RMK A01 T10081075  RH  060%=      5-min Rain = 0
KMC5 011130Z 03006KT M01/M08 A3027 RMK A01 T10081075  RH  060%=      5-min Rain = 0
KMC5 011131Z 03006KT M01/M08 A3027 RMK A01 T10071075  RH  060%=      5-min Rain = 0
KMC5 011132Z 03007KT M01/M08 A3027 RMK A01 T10081075  RH  061%=      5-min Rain = 0
KMC5 011133Z 02007KT M01/M08 A3027 RMK A01 T10091075  RH  061%=      5-min Rain = 0
KMC5 011134Z 02007KT M01/M08 A3027 RMK A01 T10101075  RH  061%=      5-min Rain = 0
KMC5 011135Z 02008KT M01/M07 A3027 RMK A01 T10101074  RH  062%=      5-min Rain = 0
KMC5 011136Z 02008KT M01/M08 A3026 RMK A01 T10111075  RH  062%=      5-min Rain = 0
KMC5 011137Z 02009KT M01/M08 A3026 RMK A01 T10111075  RH  062%=      5-min Rain = 0
KMC5 011138Z 02008KT M01/M07 A3026 RMK A01 T10111074  RH  062%=      5-min Rain = 0
KMC5 011139Z 01008KT M01/M07 A3026 RMK A01 T10111074  RH  062%=      5-min Rain = 0
KMC5 011140Z 01008KT M01/M07 A3026 RMK A01 T10111074  RH  062%=      5-min Rain = 0
KMC5 011141Z 01008KT M01/M07 A3027 RMK A01 T10111074  RH  062%=      5-min Rain = 0
KMC5 011142Z 01008KT M01/M07 A3027 RMK A01 T10111074  RH  062%=      5-min Rain = 0
KMC5 011143Z 01007KT M01/M07 A3027 RMK A01 T10111074  RH  062%=      5-min Rain = 0
KMC5 011144Z 01007KT M01/M07 A3027 RMK A01 T10111074  RH  062%=      5-min Rain = 0
KMC5 011145Z 01007KT M01/M07 A3027 RMK A01 T10111074  RH  062%=      5-min Rain = 0
KMC5 011146Z 01006KT M01/M07 A3027 RMK A01 T10111073  RH  063%=      5-min Rain = 0
KMC5 011147Z 01007KT M01/M07 A3027 RMK A01 T10121074  RH  063%=      5-min Rain = 0
KMC5 011148Z 01006KT M01/M07 A3027 RMK A01 T10111073  RH  063%=      5-min Rain = 0
KMC5 011149Z 01006KT M01/M07 A3028 RMK A01 T10121073  RH  063%=      5-min Rain = 0
KMC5 011150Z 01006KT M01/M07 A3028 RMK A01 T10121073  RH  063%=      5-min Rain = 0
KMC5 011151Z 01006KT M01/M07 A3028 RMK A01 T10121073  RH  063%=      5-min Rain = 0
KMC5 011152Z 01006KT M01/M07 A3028 RMK A01 T10121073  RH  063%=      5-min Rain = 0
KMC5 011153Z 01006KT M01/M07 A3028 RMK A01 T10121073  RH  063%=      5-min Rain = 0
KMC5 011154Z 01005KT M01/M07 A3028 RMK A01 T10121073  RH  063%=      5-min Rain = 0
KMC5 011155Z 01005KT M01/M07 A3028 RMK A01 T10121073  RH  063%=      5-min Rain = 0
KMC5 011156Z 01006KT M01/M07 A3028 RMK A01 T10121074  RH  063%=      5-min Rain = 0
KMC5 011157Z 01006KT M01/M07 A3028 RMK A01 T10121074  RH  063%=      5-min Rain = 0
KMC5 011158Z 00006KT M01/M07 A3028 RMK A01 T10121074  RH  063%=      5-min Rain = 0
KMC5 011159Z 00006KT M01/M07 A3028 RMK A01 T10121074  RH  063%=      5-min Rain = 0
KMC5 011200Z 36005KT M01/M07 A3028 RMK A01 T10121074  RH  063%=      5-min Rain = 0
KMC5 011201Z 00005KT M01/M07 A3028 RMK A01 T10121073  RH  063%=      5-min Rain = 0
KMC5 011202Z 00005KT M01/M07 A3028 RMK A01 T10121073  RH  063%=      5-min Rain = 0
KMC5 011203Z 00004KT M01/M07 A3028 RMK A01 T10121073  RH  063%=      5-min Rain = 0
KMC5 011204Z 36005KT M01/M07 A3028 RMK A01 T10121073  RH  063%=      5-min Rain = 0
KMC5 011205Z 35005KT M01/M07 A3029 RMK A01 T10121073  RH  063%=      5-min Rain = 0
KMC5 011206Z 35005KT M01/M07 A3029 RMK A01 T10121073  RH  063%=      5-min Rain = 0
KMC5 011207Z 35006KT M01/M07 A3029 RMK A01 T10121073  RH  064%=      5-min Rain = 0
KMC5 011208Z 35006KT M01/M07 A3029 RMK A01 T10121072  RH  064%=      5-min Rain = 0
KMC5 011209Z 35006KT M01/M07 A3029 RMK A01 T10111072  RH  063%=      5-min Rain = 0
KMC5 011210Z 35007KT M01/M07 A3029 RMK A01 T10111072  RH  063%=      5-min Rain = 0
KMC5 011211Z 35006KT M01/M07 A3029 RMK A01 T10101072  RH  063%=      5-min Rain = 0
KMC5 011212Z 35006KT M01/M07 A3029 RMK A01 T10101071  RH  063%=      5-min Rain = 0
KMC5 011213Z 35007KT M01/M07 A3029 RMK A01 T10101071  RH  063%=      5-min Rain = 0
KMC5 011214Z 35007KT M01/M07 A3029 RMK A01 T10101071  RH  063%=      5-min Rain = 0
KMC5 011215Z 35007KT M01/M07 A3029 RMK A01 T10101071  RH  063%=      5-min Rain = 0
KMC5 011216Z 35007KT M01/M07 A3029 RMK A01 T10101071  RH  063%=      5-min Rain = 0
KMC5 011217Z 35007KT M01/M07 A3029 RMK A01 T10101071  RH  063%=      5-min Rain = 0
KMC5 011218Z 35007KT M01/M07 A3029 RMK A01 T10091071  RH  063%=      5-min Rain = 0
KMC5 011219Z 35007KT M01/M07 A3029 RMK A01 T10091071  RH  063%=      5-min Rain = 0
KMC5 011220Z 35007KT M01/M07 A3029 RMK A01 T10091071  RH  063%=      5-min Rain = 0
KMC5 011221Z 35006KT M01/M07 A3029 RMK A01 T10091071  RH  063%=      5-min Rain = 0
KMC5 011222Z 35007KT M01/M07 A3029 RMK A01 T10091071  RH  063%=      5-min Rain = 0
KMC5 011223Z 35006KT M01/M07 A3029 RMK A01 T10091072  RH  062%=      5-min Rain = 0
KMC5 011224Z 35006KT M01/M07 A3029 RMK A01 T10091072  RH  062%=      5-min Rain = 0
KMC5 011225Z 35006KT M01/M07 A3029 RMK A01 T10081071  RH  062%=      5-min Rain = 0
KMC5 011226Z 35007KT M01/M07 A3029 RMK A01 T10081071  RH  062%=      5-min Rain = 0
KMC5 011227Z 35007KT M01/M07 A3029 RMK A01 T10081072  RH  062%=      5-min Rain = 0
KMC5 011228Z 35007KT M01/M07 A3029 RMK A01 T10081072  RH  062%=      5-min Rain = 0
KMC5 011229Z 35006KT M01/M07 A3029 RMK A01 T10081072  RH  062%=      5-min Rain = 0
KMC5 011230Z 35006KT M01/M07 A3029 RMK A01 T10081072  RH  062%=      5-min Rain = 0
KMC5 011231Z 35006KT M01/M07 A3029 RMK A01 T10081071  RH  062%=      5-min Rain = 0
KMC5 011232Z 35006KT M01/M07 A3029 RMK A01 T10081072  RH  062%=      5-min Rain = 0
KMC5 011233Z 35006KT M01/M07 A3029 RMK A01 T10081072  RH  062%=      5-min Rain = 0
KMC5 011234Z 35006KT M01/M07 A3029 RMK A01 T10071071  RH  062%=      5-min Rain = 0
KMC5 011235Z 35006KT M01/M07 A3029 RMK A01 T10081072  RH  062%=      5-min Rain = 0
KMC5 011236Z 35006KT M01/M07 A3029 RMK A01 T10081072  RH  062%=      5-min Rain = 0
KMC5 011237Z 35005KT M01/M07 A303 RMK A01 T10081072  RH  062%=      5-min Rain = 0
KMC5 011238Z 35005KT M01/M07 A303 RMK A01 T10081071  RH  062%=      5-min Rain = 0
KMC5 011239Z 35005KT M01/M07 A303 RMK A01 T10081071  RH  062%=      5-min Rain = 0
KMC5 011240Z 34005KT M01/M07 A303 RMK A01 T10081071  RH  062%=      5-min Rain = 0
KMC5 011241Z 34005KT M01/M07 A303 RMK A01 T10081071  RH  062%=      5-min Rain = 0
KMC5 011242Z 35005KT M01/M07 A303 RMK A01 T10081071  RH  063%=      5-min Rain = 0
KMC5 011243Z 34005KT M01/M07 A303 RMK A01 T10091071  RH  063%=      5-min Rain = 0
KMC5 011244Z 35005KT M01/M07 A3029 RMK A01 T10091071  RH  063%=      5-min Rain = 0
KMC5 011245Z 34005KT M01/M07 A3029 RMK A01 T10081070  RH  063%=      5-min Rain = 0
KMC5 011246Z 34006KT M01/M07 A3029 RMK A01 T10081071  RH  063%=      5-min Rain = 0
KMC5 011247Z 34006KT M01/M07 A3029 RMK A01 T10091071  RH  063%=      5-min Rain = 0
KMC5 011248Z 34006KT M01/M07 A3029 RMK A01 T10091071  RH  063%=      5-min Rain = 0
KMC5 011249Z 34007KT M01/M07 A3029 RMK A01 T10091071  RH  063%=      5-min Rain = 0
KMC5 011250Z 34007KT M01/M07 A3029 RMK A01 T10091071  RH  063%=      5-min Rain = 0
KMC5 011251Z 34006KT M01/M07 A3029 RMK A01 T10101072  RH  063%=      5-min Rain = 0
KMC5 011252Z 34006KT M01/M07 A3029 RMK A01 T10101072  RH  063%=      5-min Rain = 0
KMC5 011253Z 34007KT M01/M07 A3029 RMK A01 T10101072  RH  063%=      5-min Rain = 0
KMC5 011254Z 34007KT M01/M07 A3029 RMK A01 T10101072  RH  063%=      5-min Rain = 0
KMC5 011255Z 34007KT M01/M07 A303 RMK A01 T10101071  RH  063%=      5-min Rain = 0
KMC5 011256Z 34007KT M01/M07 A303 RMK A01 T10111071  RH  063%=      5-min Rain = 0
KMC5 011257Z 34008KT M01/M07 A303 RMK A01 T10111071  RH  064%=      5-min Rain = 0
KMC5 011258Z 34009KT M01/M07 A303 RMK A01 T10111071  RH  064%=      5-min Rain = 0
KMC5 011259Z 34009KT M01/M07 A303 RMK A01 T10111071  RH  064%=      5-min Rain = 0
KMC5 011300Z 34009KT M01/M07 A303 RMK A01 T10111071  RH  064%=      5-min Rain = 0
KMC5 011301Z 33009KT M01/M07 A303 RMK A01 T10111071  RH  064%=      5-min Rain = 0
KMC5 011302Z 34009KT M01/M07 A303 RMK A01 T10121071  RH  064%=      5-min Rain = 0
KMC5 011303Z 34008KT M01/M07 A303 RMK A01 T10111071  RH  064%=      5-min Rain = 0
KMC5 011304Z 34008KT M01/M07 A303 RMK A01 T10121071  RH  064%=      5-min Rain = 0
KMC5 011305Z 33009KT M01/M07 A303 RMK A01 T10121071  RH  064%=      5-min Rain = 0
KMC5 011306Z 34009KT M01/M07 A303 RMK A01 T10121071  RH  064%=      5-min Rain = 0
KMC5 011307Z 34009KT M01/M07 A303 RMK A01 T10121071  RH  064%=      5-min Rain = 0
KMC5 011308Z 34009KT M01/M07 A303 RMK A01 T10131071  RH  065%=      5-min Rain = 0
KMC5 011309Z 33009KT M01/M07 A303 RMK A01 T10131071  RH  065%=      5-min Rain = 0
KMC5 011310Z 33009KT M01/M07 A303 RMK A01 T10131071  RH  065%=      5-min Rain = 0
KMC5 011311Z 33009KT M01/M07 A303 RMK A01 T10141070  RH  065%=      5-min Rain = 0
KMC5 011312Z 33009KT M02/M07 A303 RMK A01 T10151071  RH  066%=      5-min Rain = 0
KMC5 011313Z 33009KT M02/M07 A303 RMK A01 T10161070  RH  066%=      5-min Rain = 0
KMC5 011314Z 33009KT M02/M07 A303 RMK A01 T10161070  RH  067%=      5-min Rain = 0
KMC5 011315Z 33010KT M02/M07 A303 RMK A01 T10171071  RH  067%=      5-min Rain = 0
KMC5 011316Z 33010KT M02/M07 A303 RMK A01 T10181071  RH  067%=      5-min Rain = 0
KMC5 011317Z 33011KT M02/M07 A303 RMK A01 T10181072  RH  067%=      5-min Rain = 0
KMC5 011318Z 33011KT M02/M07 A303 RMK A01 T10181072  RH  067%=      5-min Rain = 0
KMC5 011319Z 33011KT M02/M07 A303 RMK A01 T10181072  RH  067%=      5-min Rain = 0
KMC5 011320Z 33011KT M02/M07 A303 RMK A01 T10181072  RH  067%=      5-min Rain = 0
KMC5 011321Z 33011KT M02/M07 A303 RMK A01 T10181072  RH  067%=      5-min Rain = 0
KMC5 011322Z 33010KT M02/M07 A303 RMK A01 T10181072  RH  067%=      5-min Rain = 0
KMC5 011323Z 33010KT M02/M07 A303 RMK A01 T10181072  RH  067%=      5-min Rain = 0
KMC5 011324Z 33010KT M02/M07 A303 RMK A01 T10181072  RH  066%=      5-min Rain = 0
KMC5 011325Z 34010KT M02/M07 A303 RMK A01 T10181073  RH  066%=      5-min Rain = 0
KMC5 011326Z 33010KT M02/M07 A303 RMK A01 T10181073  RH  066%=      5-min Rain = 0
KMC5 011327Z 33010KT M02/M07 A303 RMK A01 T10181073  RH  066%=      5-min Rain = 0
KMC5 011328Z 33010KT M02/M07 A303 RMK A01 T10181072  RH  066%=      5-min Rain = 0
KMC5 011329Z 33010KT M02/M07 A303 RMK A01 T10181072  RH  067%=      5-min Rain = 0
KMC5 011330Z 33009KT M02/M07 A303 RMK A01 T10191072  RH  067%=      5-min Rain = 0
KMC5 011331Z 33009KT M02/M07 A303 RMK A01 T10191073  RH  067%=      5-min Rain = 0
KMC5 011332Z 33010KT M02/M07 A303 RMK A01 T10191073  RH  067%=      5-min Rain = 0
KMC5 011333Z 33010KT M02/M07 A303 RMK A01 T10191072  RH  067%=      5-min Rain = 0
KMC5 011334Z 33009KT M02/M07 A3031 RMK A01 T10191072  RH  067%=      5-min Rain = 0
KMC5 011335Z 33009KT M02/M07 A3031 RMK A01 T10201073  RH  067%=      5-min Rain = 0
KMC5 011336Z 32009KT M02/M07 A3031 RMK A01 T10201073  RH  067%=      5-min Rain = 0
KMC5 011337Z 33009KT M02/M07 A3031 RMK A01 T10201073  RH  068%=      5-min Rain = 0
KMC5 011338Z 32009KT M02/M07 A3031 RMK A01 T10201072  RH  067%=      5-min Rain = 0
KMC5 011339Z 32009KT M02/M07 A3031 RMK A01 T10201073  RH  067%=      5-min Rain = 0
KMC5 011340Z 32009KT M02/M07 A3031 RMK A01 T10211072  RH  068%=      5-min Rain = 0
KMC5 011341Z 33008KT M02/M07 A3031 RMK A01 T10201072  RH  068%=      5-min Rain = 0
KMC5 011342Z 32008KT M02/M07 A3031 RMK A01 T10201072  RH  068%=      5-min Rain = 0
KMC5 011343Z 32008KT M02/M07 A3031 RMK A01 T10211072  RH  068%=      5-min Rain = 0
KMC5 011344Z 32008KT M02/M07 A3031 RMK A01 T10201072  RH  068%=      5-min Rain = 0
KMC5 011345Z 32008KT M02/M07 A3031 RMK A01 T10201072  RH  068%=      5-min Rain = 0
KMC5 011346Z 32008KT M02/M07 A3031 RMK A01 T10201071  RH  068%=      5-min Rain = 0
KMC5 011347Z 32008KT M02/M07 A3032 RMK A01 T10191071  RH  068%=      5-min Rain = 0
KMC5 011348Z 32007KT M02/M07 A3032 RMK A01 T10191071  RH  068%=      5-min Rain = 0
KMC5 011349Z 32007KT M02/M07 A3032 RMK A01 T10191071  RH  068%=      5-min Rain = 0
KMC5 011350Z 32007KT M02/M07 A3032 RMK A01 T10191071  RH  067%=      5-min Rain = 0
KMC5 011351Z 32006KT M02/M07 A3032 RMK A01 T10181071  RH  067%=      5-min Rain = 0
KMC5 011352Z 32007KT M02/M07 A3032 RMK A01 T10181071  RH  067%=      5-min Rain = 0
KMC5 011353Z 32006KT M02/M07 A3032 RMK A01 T10181071  RH  067%=      5-min Rain = 0
KMC5 011354Z 32005KT M02/M07 A3032 RMK A01 T10181070  RH  067%=      5-min Rain = 0
KMC5 011355Z 32006KT M02/M07 A3032 RMK A01 T10171070  RH  067%=      5-min Rain = 0
KMC5 011356Z 32006KT M02/M07 A3032 RMK A01 T10171070  RH  067%=      5-min Rain = 0
KMC5 011357Z 32006KT M02/M07 A3032 RMK A01 T10171070  RH  067%=      5-min Rain = 0
KMC5 011358Z 33007KT M02/M07 A3032 RMK A01 T10171071  RH  067%=      5-min Rain = 0
KMC5 011359Z 32007KT M02/M07 A3032 RMK A01 T10171070  RH  067%=      5-min Rain = 0
KMC5 011400Z 32007KT M02/M07 A3032 RMK A01 T10161070  RH  067%=      5-min Rain = 0
KMC5 011401Z 32007KT M02/M07 A3032 RMK A01 T10151070  RH  066%=      5-min Rain = 0
KMC5 011402Z 32006KT M01/M07 A3032 RMK A01 T10141070  RH  066%=      5-min Rain = 0
KMC5 011403Z 32007KT M01/M07 A3032 RMK A01 T10131069  RH  066%=      5-min Rain = 0
KMC5 011404Z 32006KT M01/M07 A3032 RMK A01 T10131070  RH  065%=      5-min Rain = 0
KMC5 011405Z 33006KT M01/M07 A3032 RMK A01 T10121069  RH  065%=      5-min Rain = 0
KMC5 011406Z 32006KT M01/M07 A3032 RMK A01 T10111070  RH  064%=      5-min Rain = 0
KMC5 011407Z 32005KT M01/M07 A3033 RMK A01 T10101069  RH  064%=      5-min Rain = 0
KMC5 011408Z 32005KT M01/M07 A3033 RMK A01 T10091069  RH  064%=      5-min Rain = 0
KMC5 011409Z 32005KT M01/M07 A3033 RMK A01 T10091070  RH  063%=      5-min Rain = 0
KMC5 011410Z 32006KT M01/M07 A3033 RMK A01 T10081070  RH  063%=      5-min Rain = 0
KMC5 011411Z 32005KT M01/M07 A3033 RMK A01 T10071070  RH  063%=      5-min Rain = 0
KMC5 011412Z 32006KT M01/M07 A3033 RMK A01 T10061069  RH  062%=      5-min Rain = 0
KMC5 011413Z 32006KT M01/M07 A3033 RMK A01 T10051069  RH  062%=      5-min Rain = 0
KMC5 011414Z 32005KT M00/M07 A3033 RMK A01 T10041069  RH  062%=      5-min Rain = 0
KMC5 011415Z 32006KT M00/M07 A3033 RMK A01 T10021069  RH  061%=      5-min Rain = 0
KMC5 011416Z 33005KT M00/M07 A3033 RMK A01 T10011069  RH  060%=      5-min Rain = 0
KMC5 011417Z 32005KT 00/M07 A3033 RMK A01 T00011067  RH  060%=      5-min Rain = 0
KMC5 011418Z 32006KT 00/M07 A3033 RMK A01 T00011068  RH  060%=      5-min Rain = 0
KMC5 011419Z 32006KT 00/M07 A3033 RMK A01 T00011069  RH  059%=      5-min Rain = 0
KMC5 011420Z 32006KT 00/07 A3034 RMK A01 T00000-69  RH  059%=      5-min Rain = 0
KMC5 011421Z 33006KT 00/07 A3034 RMK A01 T00000-70  RH  059%=      5-min Rain = 0
KMC5 011422Z 32005KT 00/M07 A3034 RMK A01 T00011068  RH  060%=      5-min Rain = 0
KMC5 011423Z 32005KT 00/M07 A3034 RMK A01 T00021068  RH  059%=      5-min Rain = 0
KMC5 011424Z 32005KT 01/M07 A3034 RMK A01 T00051067  RH  059%=      5-min Rain = 0
KMC5 011425Z 32005KT 01/M07 A3034 RMK A01 T00051068  RH  058%=      5-min Rain = 0
KMC5 011426Z 32005KT 01/M07 A3034 RMK A01 T00051069  RH  057%=      5-min Rain = 0
KMC5 011427Z 33005KT 01/M07 A3035 RMK A01 T00051071  RH  057%=      5-min Rain = 0
KMC5 011428Z 31005KT 01/M07 A3035 RMK A01 T00051069  RH  058%=      5-min Rain = 0
KMC5 011429Z 31005KT 01/M07 A3035 RMK A01 T00061068  RH  058%=      5-min Rain = 0
KMC5 011430Z 32006KT 01/M07 A3035 RMK A01 T00061069  RH  057%=      5-min Rain = 0
KMC5 011431Z 33005KT 01/M07 A3035 RMK A01 T00061072  RH  056%=      5-min Rain = 0
KMC5 011432Z 33005KT 01/M07 A3035 RMK A01 T00061070  RH  056%=      5-min Rain = 0
KMC5 011433Z 33006KT 01/M07 A3035 RMK A01 T00071071  RH  056%=      5-min Rain = 0
KMC5 011434Z 33006KT 01/M07 A3035 RMK A01 T00061071  RH  056%=      5-min Rain = 0
KMC5 011435Z 33006KT 01/M07 A3035 RMK A01 T00071070  RH  057%=      5-min Rain = 0
KMC5 011436Z 33005KT 01/M07 A3035 RMK A01 T00081071  RH  056%=      5-min Rain = 0
KMC5 011437Z 33005KT 01/M07 A3035 RMK A01 T00081070  RH  056%=      5-min Rain = 0
KMC5 011438Z 33006KT 01/M07 A3035 RMK A01 T00091069  RH  056%=      5-min Rain = 0
KMC5 011439Z 33006KT 01/M07 A3035 RMK A01 T00101069  RH  056%=      5-min Rain = 0
KMC5 011440Z 33006KT 01/M07 A3035 RMK A01 T00111069  RH  055%=      5-min Rain = 0
KMC5 011441Z 32007KT 01/M07 A3035 RMK A01 T00111070  RH  055%=      5-min Rain = 0
KMC5 011442Z 31006KT 01/M07 A3035 RMK A01 T00101071  RH  055%=      5-min Rain = 0
KMC5 011443Z 31006KT 01/M07 A3035 RMK A01 T00101070  RH  055%=      5-min Rain = 0
KMC5 011444Z 32006KT 01/M07 A3035 RMK A01 T00101070  RH  055%=      5-min Rain = 0
KMC5 011445Z 32005KT 01/M07 A3035 RMK A01 T00111069  RH  055%=      5-min Rain = 0
KMC5 011446Z 33007KT 01/M07 A3036 RMK A01 T00131069  RH  055%=      5-min Rain = 0
KMC5 011447Z 32007KT 01/M07 A3036 RMK A01 T00131070  RH  054%=      5-min Rain = 0
KMC5 011448Z 32007KT 01/M07 A3036 RMK A01 T00121070  RH  054%=      5-min Rain = 0
KMC5 011449Z 32006KT 01/M07 A3036 RMK A01 T00131071  RH  054%=      5-min Rain = 0
KMC5 011450Z 33006KT 01/M07 A3036 RMK A01 T00121071  RH  054%=      5-min Rain = 0
KMC5 011451Z 33007KT 01/M07 A3036 RMK A01 T00121071  RH  054%=      5-min Rain = 0
KMC5 011452Z 33007KT 01/M07 A3036 RMK A01 T00131071  RH  054%=      5-min Rain = 0
KMC5 011453Z 33007KT 01/M07 A3036 RMK A01 T00131071  RH  053%=      5-min Rain = 0
KMC5 011454Z 33008KT 01/M07 A3036 RMK A01 T00141070  RH  054%=      5-min Rain = 0
KMC5 011455Z 33008KT 02/M07 A3036 RMK A01 T00151071  RH  053%=      5-min Rain = 0
KMC5 011456Z 32008KT 02/M07 A3036 RMK A01 T00151072  RH  053%=      5-min Rain = 0
KMC5 011457Z 33008KT 02/M07 A3036 RMK A01 T00151073  RH  052%=      5-min Rain = 0
KMC5 011458Z 34008KT 01/M07 A3036 RMK A01 T00141072  RH  053%=      5-min Rain = 0
KMC5 011459Z 34007KT 02/M07 A3036 RMK A01 T00151071  RH  053%=      5-min Rain = 0
KMC5 011500Z 33007KT 02/M07 A3036 RMK A01 T00161072  RH  052%=      5-min Rain = 0
KMC5 011501Z 33007KT 02/M07 A3036 RMK A01 T00161071  RH  052%=      5-min Rain = 0
KMC5 011502Z 33008KT 02/M07 A3036 RMK A01 T00171071  RH  052%=      5-min Rain = 0
KMC5 011503Z 33008KT 02/M07 A3036 RMK A01 T00161072  RH  052%=      5-min Rain = 0
KMC5 011504Z 33007KT 02/M07 A3036 RMK A01 T00161072  RH  052%=      5-min Rain = 0
KMC5 011505Z 34008KT 02/M07 A3036 RMK A01 T00171071  RH  052%=      5-min Rain = 0
KMC5 011506Z 34008KT 02/M07 A3036 RMK A01 T00191072  RH  051%=      5-min Rain = 0
KMC5 011507Z 33008KT 02/M07 A3036 RMK A01 T00191072  RH  051%=      5-min Rain = 0
KMC5 011508Z 33008KT 02/M07 A3036 RMK A01 T00191072  RH  051%=      5-min Rain = 0
KMC5 011509Z 34008KT 02/M07 A3036 RMK A01 T00201071  RH  051%=      5-min Rain = 0
KMC5 011510Z 34008KT 02/M07 A3036 RMK A01 T00211072  RH  050%=      5-min Rain = 0
KMC5 011511Z 33009KT 02/M07 A3036 RMK A01 T00211071  RH  050%=      5-min Rain = 0
KMC5 011512Z 35008KT 02/M07 A3036 RMK A01 T00211071  RH  051%=      5-min Rain = 0
KMC5 011513Z 35008KT 02/M07 A3036 RMK A01 T00231070  RH  050%=      5-min Rain = 0
KMC5 011514Z 35008KT 02/M07 A3037 RMK A01 T00241070  RH  050%=      5-min Rain = 0
KMC5 011515Z 34008KT 03/M07 A3037 RMK A01 T00251071  RH  049%=      5-min Rain = 0
KMC5 011516Z 34009KT 02/M07 A3037 RMK A01 T00231072  RH  049%=      5-min Rain = 0
KMC5 011517Z 34009KT 02/M07 A3037 RMK A01 T00221070  RH  050%=      5-min Rain = 0
KMC5 011518Z 34008KT 02/M07 A3037 RMK A01 T00231072  RH  050%=      5-min Rain = 0
KMC5 011519Z 34008KT 02/M07 A3036 RMK A01 T00231072  RH  050%=      5-min Rain = 0
KMC5 011520Z 35007KT 02/M07 A3036 RMK A01 T00221072  RH  050%=      5-min Rain = 0
KMC5 011521Z 34007KT 02/M07 A3036 RMK A01 T00241069  RH  050%=      5-min Rain = 0
KMC5 011522Z 34007KT 03/M07 A3037 RMK A01 T00261069  RH  049%=      5-min Rain = 0
KMC5 011523Z 34008KT 03/M07 A3037 RMK A01 T00261071  RH  049%=      5-min Rain = 0
KMC5 011524Z 34008KT 03/M07 A3037 RMK A01 T00251071  RH  049%=      5-min Rain = 0
KMC5 011525Z 34008KT 03/M07 A3037 RMK A01 T00261072  RH  048%=      5-min Rain = 0
KMC5 011526Z 33008KT 03/M07 A3037 RMK A01 T00251073  RH  048%=      5-min Rain = 0
KMC5 011527Z 34009KT 03/M07 A3037 RMK A01 T00251072  RH  049%=      5-min Rain = 0
KMC5 011528Z 35009KT 03/M07 A3037 RMK A01 T00261072  RH  048%=      5-min Rain = 0
KMC5 011529Z 34006KT 03/M07 A3037 RMK A01 T00271072  RH  048%=      5-min Rain = 0
KMC5 011530Z 00007KT 03/M07 A3037 RMK A01 T00281071  RH  048%=      5-min Rain = 0
KMC5 011531Z 35007KT 03/M07 A3037 RMK A01 T00321069  RH  047%=      5-min Rain = 0
KMC5 011532Z 36008KT 03/M07 A3037 RMK A01 T00341074  RH  045%=      5-min Rain = 0
KMC5 011533Z 35006KT 03/M07 A3037 RMK A01 T00331074  RH  045%=      5-min Rain = 0
KMC5 011534Z 35008KT 03/M07 A3037 RMK A01 T00321074  RH  045%=      5-min Rain = 0
KMC5 011535Z 36006KT 03/M08 A3037 RMK A01 T00321076  RH  045%=      5-min Rain = 0
KMC5 011536Z 01005KT 03/M07 A3037 RMK A01 T00321074  RH  046%=      5-min Rain = 0
KMC5 011537Z 00006KT 03/M08 A3037 RMK A01 T00331076  RH  045%=      5-min Rain = 0
KMC5 011538Z 00007KT 03/M08 A3037 RMK A01 T00321077  RH  044%=      5-min Rain = 0
KMC5 011539Z 36007KT 03/M08 A3037 RMK A01 T00311077  RH  045%=      5-min Rain = 0
KMC5 011540Z 36006KT 03/M08 A3037 RMK A01 T00301078  RH  045%=      5-min Rain = 0
KMC5 011541Z 36004KT 03/M08 A3037 RMK A01 T00291080  RH  045%=      5-min Rain = 0
KMC5 011542Z 35007KT 03/M08 A3037 RMK A01 T00291079  RH  045%=      5-min Rain = 0
KMC5 011543Z 36006KT 03/M08 A3037 RMK A01 T00301079  RH  045%=      5-min Rain = 0
KMC5 011544Z 01006KT 03/M08 A3037 RMK A01 T00311078  RH  045%=      5-min Rain = 0
KMC5 011545Z 35007KT 03/M08 A3037 RMK A01 T00331078  RH  044%=      5-min Rain = 0
KMC5 011546Z 35006KT 03/M08 A3037 RMK A01 T00331078  RH  044%=      5-min Rain = 0
KMC5 011547Z 35005KT 03/M08 A3037 RMK A01 T00331075  RH  045%=      5-min Rain = 0
KMC5 011548Z 35006KT 03/M08 A3037 RMK A01 T00341076  RH  044%=      5-min Rain = 0
KMC5 011549Z 34007KT 03/M08 A3037 RMK A01 T00341077  RH  044%=      5-min Rain = 0
KMC5 011550Z 35004KT 03/M08 A3037 RMK A01 T00341076  RH  044%=      5-min Rain = 0
KMC5 011551Z 35006KT 03/M08 A3037 RMK A01 T00341079  RH  043%=      5-min Rain = 0
KMC5 011552Z 36007KT 03/M08 A3037 RMK A01 T00341080  RH  043%=      5-min Rain = 0
KMC5 011553Z 00004KT 03/M08 A3037 RMK A01 T00341079  RH  043%=      5-min Rain = 0
KMC5 011554Z 01007KT 04/M08 A3037 RMK A01 T00361075  RH  044%=      5-min Rain = 0
KMC5 011555Z 01007KT 04/M08 A3037 RMK A01 T00401078  RH  042%=      5-min Rain = 0
KMC5 011556Z 35007KT 04/M08 A3037 RMK A01 T00391082  RH  041%=      5-min Rain = 0
KMC5 011557Z 36007KT 04/M08 A3037 RMK A01 T00371080  RH  042%=      5-min Rain = 0
KMC5 011558Z 36007KT 04/M08 A3037 RMK A01 T00371081  RH  042%=      5-min Rain = 0
KMC5 011559Z 36006KT 04/M08 A3037 RMK A01 T00381080  RH  042%=      5-min Rain = 0
KMC5 011600Z 00008KT 04/M08 A3038 RMK A01 T00391078  RH  042%=      5-min Rain = 0
KMC5 011601Z 02007KT 04/M08 A3038 RMK A01 T00431078  RH  041%=      5-min Rain = 0
KMC5 011602Z 02009KT 04/M08 A3038 RMK A01 T00441080  RH  040%=      5-min Rain = 0
KMC5 011603Z 02008KT 05/M08 A3038 RMK A01 T00451082  RH  039%=      5-min Rain = 0
KMC5 011604Z 01009KT 05/M08 A3038 RMK A01 T00451082  RH  039%=      5-min Rain = 0
KMC5 011605Z 00008KT 05/M09 A3038 RMK A01 T00461085  RH  038%=      5-min Rain = 0
KMC5 011606Z 01010KT 05/M09 A3038 RMK A01 T00461085  RH  038%=      5-min Rain = 0
KMC5 011607Z 00011KT 05/M09 A3038 RMK A01 T00461088  RH  037%=      5-min Rain = 0
KMC5 011608Z 00009KT 05/M09 A3038 RMK A01 T00451090  RH  037%=      5-min Rain = 0
KMC5 011609Z 00009KT 05/M09 A3038 RMK A01 T00461089  RH  037%=      5-min Rain = 0
KMC5 011610Z 00008KT 05/M09 A3038 RMK A01 T00471088  RH  037%=      5-min Rain = 0
KMC5 011611Z 02007KT 05/M09 A3038 RMK A01 T00471086  RH  038%=      5-min Rain = 0
KMC5 011612Z 36008KT 05/M09 A3038 RMK A01 T00491086  RH  037%=      5-min Rain = 0
KMC5 011613Z 35008KT 05/M09 A3038 RMK A01 T00501090  RH  036%=      5-min Rain = 0
KMC5 011614Z 35009KT 05/M09 A3038 RMK A01 T00501092  RH  035%=      5-min Rain = 0
KMC5 011615Z 35009KT 05/M09 A3038 RMK A01 T00491093  RH  035%=      5-min Rain = 0
KMC5 011616Z 35007KT 05/M09 A3038 RMK A01 T00491093  RH  035%=      5-min Rain = 0
KMC5 011617Z 35008KT 05/M09 A3038 RMK A01 T00471090  RH  036%=      5-min Rain = 0
KMC5 011618Z 36009KT 05/M09 A3038 RMK A01 T00481094  RH  035%=      5-min Rain = 0
KMC5 011619Z 00010KT 05/M10 A3038 RMK A01 T00491096  RH  034%=      5-min Rain = 0
KMC5 011620Z 01010KT 05/M10 A3038 RMK A01 T00501099  RH  033%=      5-min Rain = 0
KMC5 011621Z 35011KT 05/M10 A3038 RMK A01 T00501097  RH  034%=      5-min Rain = 0
KMC5 011622Z 35009KT 05/M10 A3038 RMK A01 T00491095  RH  034%=      5-min Rain = 0
KMC5 011623Z 35008KT 05/M09 A3038 RMK A01 T00481092  RH  036%=      5-min Rain = 0
KMC5 011624Z 34007KT 05/M09 A3038 RMK A01 T00501086  RH  036%=      5-min Rain = 0
KMC5 011625Z 34008KT 05/M09 A3038 RMK A01 T00511087  RH  036%=      5-min Rain = 0
KMC5 011626Z 34008KT 05/M09 A3038 RMK A01 T00521087  RH  036%=      5-min Rain = 0
KMC5 011627Z 35010KT 05/M09 A3038 RMK A01 T00531090  RH  035%=      5-min Rain = 0
KMC5 011628Z 01011KT 06/M10 A3038 RMK A01 T00551100  RH  032%=      5-min Rain = 0
KMC5 011629Z 01009KT 06/M11 A3038 RMK A01 T00561105  RH  030%=      5-min Rain = 0
KMC5 011630Z 35008KT 06/M10 A3038 RMK A01 T00561102  RH  031%=      5-min Rain = 0
KMC5 011631Z 01011KT 06/M10 A3038 RMK A01 T00571101  RH  031%=      5-min Rain = 0
KMC5 011632Z 00009KT 06/M10 A3038 RMK A01 T00561099  RH  032%=      5-min Rain = 0
KMC5 011633Z 36009KT 06/M10 A3038 RMK A01 T00551101  RH  032%=      5-min Rain = 0
KMC5 011634Z 02009KT 06/M10 A3038 RMK A01 T00571102  RH  031%=      5-min Rain = 0
KMC5 011635Z 02011KT 06/M11 A3038 RMK A01 T00591107  RH  029%=      5-min Rain = 0
KMC5 011636Z 02009KT 06/M11 A3038 RMK A01 T00611114  RH  027%=      5-min Rain = 0
KMC5 011637Z 02008KT 06/M11 A3038 RMK A01 T00611110  RH  028%=      5-min Rain = 0
KMC5 011638Z 00009KT 06/M10 A3038 RMK A01 T00621104  RH  029%=      5-min Rain = 0
KMC5 011639Z 00008KT 06/M10 A3038 RMK A01 T00631103  RH  029%=      5-min Rain = 0
KMC5 011640Z 02007KT 07/M10 A3038 RMK A01 T00681098  RH  029%=      5-min Rain = 0
KMC5 011641Z 02006KT 07/M10 A3038 RMK A01 T00691102  RH  028%=      5-min Rain = 0
KMC5 011642Z 03008KT 07/M10 A3038 RMK A01 T00671104  RH  028%=      5-min Rain = 0
KMC5 011643Z 01007KT 07/M10 A3038 RMK A01 T00661102  RH  029%=      5-min Rain = 0
KMC5 011644Z 00005KT 07/M10 A3038 RMK A01 T00661101  RH  029%=      5-min Rain = 0
KMC5 011645Z 01008G13KT 07/M11 A3038 RMK A01 T00651105  RH  029%=      5-min Rain = 0
KMC5 011646Z 01008KT 06/M11 A3038 RMK A01 T00641111  RH  027%=      5-min Rain = 0
KMC5 011647Z 02009KT 07/M11 A3038 RMK A01 T00681108  RH  027%=      5-min Rain = 0
KMC5 011648Z 00010KT 07/M11 A3038 RMK A01 T00721107  RH  027%=      5-min Rain = 0
KMC5 011649Z 00012KT 07/M11 A3038 RMK A01 T00701111  RH  026%=      5-min Rain = 0
KMC5 011650Z 00010KT 07/M11 A3038 RMK A01 T00661114  RH  026%=      5-min Rain = 0
KMC5 011651Z 35010KT 07/M11 A3038 RMK A01 T00661113  RH  026%=      5-min Rain = 0
KMC5 011652Z 01011KT 07/M11 A3038 RMK A01 T00661111  RH  027%=      5-min Rain = 0
KMC5 011653Z 02013KT 07/M11 A3038 RMK A01 T00681107  RH  027%=      5-min Rain = 0
KMC5 011654Z 03011KT 07/M11 A3038 RMK A01 T00701112  RH  026%=      5-min Rain = 0
KMC5 011655Z 01009KT 07/M11 A3038 RMK A01 T00721109  RH  026%=      5-min Rain = 0
KMC5 011656Z 01011KT 08/M10 A3038 RMK A01 T00771104  RH  026%=      5-min Rain = 0
KMC5 011657Z 01012KT 08/M11 A3038 RMK A01 T00761113  RH  025%=      5-min Rain = 0
KMC5 011658Z 02009KT 07/M12 A3038 RMK A01 T00721115  RH  025%=      5-min Rain = 0
KMC5 011659Z 01010KT 07/M11 A3038 RMK A01 T00711109  RH  026%=      5-min Rain = 0
KMC5 011700Z 01011KT 07/M11 A3038 RMK A01 T00711108  RH  027%=      5-min Rain = 0
KMC5 011701Z 01013KT 07/M11 A3038 RMK A01 T00731107  RH  027%=      5-min Rain = 0
KMC5 011702Z 03011KT 08/M11 A3038 RMK A01 T00751107  RH  026%=      5-min Rain = 0
KMC5 011703Z 02011KT 08/M11 A3038 RMK A01 T00781108  RH  025%=      5-min Rain = 0
KMC5 011704Z 01010KT 08/M11 A3038 RMK A01 T00761110  RH  025%=      5-min Rain = 0
KMC5 011705Z 02011KT 08/M11 A3038 RMK A01 T00751108  RH  026%=      5-min Rain = 0
KMC5 011706Z 04010KT 07/M11 A3038 RMK A01 T00731110  RH  026%=      5-min Rain = 0
KMC5 011707Z 03009KT 07/M11 A3038 RMK A01 T00721108  RH  027%=      5-min Rain = 0
KMC5 011708Z 03010G15KT 07/M11 A3038 RMK A01 T00731106  RH  027%=      5-min Rain = 0
KMC5 011709Z 03008KT 08/M11 A3038 RMK A01 T00751108  RH  026%=      5-min Rain = 0
KMC5 011710Z 01008KT 07/M11 A3038 RMK A01 T00741106  RH  027%=      5-min Rain = 0
KMC5 011711Z 00009KT 08/M10 A3038 RMK A01 T00751104  RH  027%=      5-min Rain = 0
KMC5 011712Z 36010KT 08/M10 A3038 RMK A01 T00751104  RH  027%=      5-min Rain = 0
KMC5 011713Z 01009KT 08/M10 A3038 RMK A01 T00751101  RH  027%=      5-min Rain = 0
KMC5 011714Z 02008KT 08/M10 A3038 RMK A01 T00761100  RH  028%=      5-min Rain = 0
KMC5 011715Z 00009KT 08/M10 A3038 RMK A01 T00771100  RH  027%=      5-min Rain = 0
KMC5 011716Z 01009KT 08/M10 A3038 RMK A01 T00781101  RH  027%=      5-min Rain = 0
KMC5 011717Z 03010KT 08/M10 A3038 RMK A01 T00781100  RH  027%=      5-min Rain = 0
KMC5 011718Z 03011KT 08/M10 A3038 RMK A01 T00791102  RH  027%=      5-min Rain = 0
KMC5 011719Z 02011KT 08/M10 A3038 RMK A01 T00781100  RH  027%=      5-min Rain = 0
KMC5 011720Z 01012KT 09/M09 A3038 RMK A01 T00851094  RH  027%=      5-min Rain = 0
KMC5 011721Z 00009KT 09/M10 A3039 RMK A01 T00871104  RH  025%=      5-min Rain = 0
KMC5 011722Z 02010KT 08/M10 A3039 RMK A01 T00841102  RH  026%=      5-min Rain = 0
KMC5 011723Z 02010KT 08/M10 A3038 RMK A01 T00831101  RH  026%=      5-min Rain = 0
KMC5 011724Z 01010KT 08/M10 A3039 RMK A01 T00831100  RH  026%=      5-min Rain = 0
KMC5 011725Z 02006KT 08/M10 A3039 RMK A01 T00811102  RH  026%=      5-min Rain = 0
KMC5 011726Z 03007KT 08/M10 A3039 RMK A01 T00801102  RH  026%=      5-min Rain = 0
KMC5 011727Z 02009KT 08/M10 A3039 RMK A01 T00791102  RH  026%=      5-min Rain = 0
KMC5 011728Z 36009KT 08/M10 A3039 RMK A01 T00791100  RH  027%=      5-min Rain = 0
KMC5 011729Z 00010KT 08/M10 A3039 RMK A01 T00821101  RH  026%=      5-min Rain = 0
KMC5 011730Z 35010G15KT 08/M10 A3039 RMK A01 T00811103  RH  026%=      5-min Rain = 0
KMC5 011731Z 35014KT 08/M11 A3039 RMK A01 T00811105  RH  026%=      5-min Rain = 0
KMC5 011732Z 35013KT 08/M11 A3039 RMK A01 T00811105  RH  026%=      5-min Rain = 0
KMC5 011733Z 36012KT 08/M10 A3039 RMK A01 T00791104  RH  026%=      5-min Rain = 0
KMC5 011734Z 00011KT 08/M10 A3039 RMK A01 T00781102  RH  027%=      5-min Rain = 0
KMC5 011735Z 01009KT 08/M11 A3039 RMK A01 T00781105  RH  026%=      5-min Rain = 0
KMC5 011736Z 02007KT 08/M10 A3039 RMK A01 T00761104  RH  027%=      5-min Rain = 0
KMC5 011737Z 36007KT 08/M10 A3039 RMK A01 T00801100  RH  027%=      5-min Rain = 0
KMC5 011738Z 02007KT 08/M10 A3039 RMK A01 T00841099  RH  026%=      5-min Rain = 0
KMC5 011739Z 04008KT 09/M11 A3039 RMK A01 T00851105  RH  025%=      5-min Rain = 0
KMC5 011740Z 03011KT 09/M10 A3039 RMK A01 T00851103  RH  025%=      5-min Rain = 0
KMC5 011741Z 04011KT 09/M10 A3039 RMK A01 T00861102  RH  025%=      5-min Rain = 0
KMC5 011742Z 01014KT 09/M10 A3039 RMK A01 T00891104  RH  024%=      5-min Rain = 0
KMC5 011743Z 36014KT 09/M11 A3039 RMK A01 T00881109  RH  024%=      5-min Rain = 0
KMC5 011744Z 01010KT 09/M11 A3039 RMK A01 T00871110  RH  024%=      5-min Rain = 0
KMC5 011745Z 03007KT 09/M11 A304 RMK A01 T00871107  RH  024%=      5-min Rain = 0
KMC5 011746Z 05008KT 09/M11 A304 RMK A01 T00891106  RH  024%=      5-min Rain = 0
KMC5 011747Z 05010KT 09/M10 A304 RMK A01 T00901104  RH  024%=      5-min Rain = 0
KMC5 011748Z 03013KT 09/M11 A3039 RMK A01 T00931105  RH  024%=      5-min Rain = 0
KMC5 011749Z 01010KT 09/M11 A3039 RMK A01 T00911105  RH  024%=      5-min Rain = 0
KMC5 011750Z 04011KT 10/M10 A304 RMK A01 T00951104  RH  023%=      5-min Rain = 0
KMC5 011751Z 04010KT 10/M11 A3039 RMK A01 T00951110  RH  022%=      5-min Rain = 0
KMC5 011752Z 04011KT 09/M11 A3039 RMK A01 T00921108  RH  023%=      5-min Rain = 0
KMC5 011753Z 04011KT 09/M11 A3039 RMK A01 T00931108  RH  023%=      5-min Rain = 0
KMC5 011754Z 04009KT 09/M11 A3039 RMK A01 T00901111  RH  023%=      5-min Rain = 0
KMC5 011755Z 05013KT 09/M11 A3039 RMK A01 T00941114  RH  022%=      5-min Rain = 0
KMC5 011756Z 04014KT 10/M12 A3039 RMK A01 T00961123  RH  020%=      5-min Rain = 0
KMC5 011757Z 04012G17KT 10/M13 A3039 RMK A01 T00951126  RH  020%=      5-min Rain = 0
KMC5 011758Z 05010KT 09/M13 A3039 RMK A01 T00921131  RH  019%=      5-min Rain = 0
KMC5 011759Z 05010KT 09/M13 A3039 RMK A01 T00921127  RH  020%=      5-min Rain = 0
KMC5 011800Z 04012KT 09/M13 A304 RMK A01 T00911128  RH  020%=      5-min Rain = 0
KMC5 011801Z 02013KT 09/M13 A3039 RMK A01 T00911126  RH  020%=      5-min Rain = 0
KMC5 011802Z 02009G15KT 09/M13 A3039 RMK A01 T00901126  RH  020%=      5-min Rain = 0
KMC5 011803Z 04009KT 09/M13 A304 RMK A01 T00901127  RH  020%=      5-min Rain = 0
KMC5 011804Z 04013KT 09/M13 A3039 RMK A01 T00941125  RH  020%=      5-min Rain = 0
KMC5 011805Z 04012KT 10/M13 A3039 RMK A01 T00951129  RH  019%=      5-min Rain = 0
KMC5 011806Z 02014KT 09/M13 A3039 RMK A01 T00921130  RH  019%=      5-min Rain = 0
KMC5 011807Z 02012G17KT 09/M13 A3039 RMK A01 T00931133  RH  019%=      5-min Rain = 0
KMC5 011808Z 02016KT 10/M13 A3039 RMK A01 T00951131  RH  019%=      5-min Rain = 0
KMC5 011809Z 03014KT 10/M14 A3039 RMK A01 T00971138  RH  018%=      5-min Rain = 0
KMC5 011810Z 04011KT 10/M14 A3039 RMK A01 T00951138  RH  018%=      5-min Rain = 0
KMC5 011811Z 05015G21KT 09/M14 A3039 RMK A01 T00931139  RH  018%=      5-min Rain = 0
KMC5 011812Z 04015KT 09/M13 A3039 RMK A01 T00931131  RH  019%=      5-min Rain = 0
KMC5 011813Z 04011KT 09/M13 A3039 RMK A01 T00941126  RH  020%=      5-min Rain = 0
KMC5 011814Z 03010KT 10/M12 A3039 RMK A01 T00981122  RH  020%=      5-min Rain = 0
KMC5 011815Z 03007KT 10/M13 A3039 RMK A01 T00981128  RH  019%=      5-min Rain = 0
KMC5 011816Z 04009KT 10/M14 A3039 RMK A01 T00961138  RH  018%=      5-min Rain = 0
KMC5 011817Z 05010KT 09/M14 A3039 RMK A01 T00941139  RH  018%=      5-min Rain = 0
KMC5 011818Z 04013KT 10/M14 A3039 RMK A01 T00951136  RH  018%=      5-min Rain = 0
KMC5 011819Z 05013KT 10/M13 A3039 RMK A01 T00981132  RH  018%=      5-min Rain = 0
KMC5 011820Z 04010KT 09/M13 A3039 RMK A01 T00941133  RH  019%=      5-min Rain = 0
KMC5 011821Z 04012KT 10/M13 A3039 RMK A01 T01001126  RH  019%=      5-min Rain = 0
KMC5 011822Z 05012KT 10/M14 A3039 RMK A01 T01001138  RH  017%=      5-min Rain = 0
KMC5 011823Z 04009KT 09/M15 A3039 RMK A01 T00941147  RH  017%=      5-min Rain = 0
KMC5 011824Z 05011KT 10/M14 A3039 RMK A01 T00951138  RH  018%=      5-min Rain = 0
KMC5 011825Z 05010KT 10/M14 A3039 RMK A01 T00951138  RH  018%=      5-min Rain = 0
KMC5 011826Z 04011KT 09/M14 A3039 RMK A01 T00921136  RH  018%=      5-min Rain = 0
KMC5 011827Z 03017KT 09/M13 A3038 RMK A01 T00911132  RH  019%=      5-min Rain = 0
KMC5 011828Z 02017KT 09/M13 A3038 RMK A01 T00941134  RH  018%=      5-min Rain = 0
KMC5 011829Z 03015KT 09/M14 A3039 RMK A01 T00931142  RH  017%=      5-min Rain = 0
KMC5 011830Z 03011KT 09/M14 A3039 RMK A01 T00941144  RH  017%=      5-min Rain = 0
KMC5 011831Z 03011KT 09/M14 A3039 RMK A01 T00921144  RH  017%=      5-min Rain = 0
KMC5 011832Z 03014KT 09/M13 A3039 RMK A01 T00921132  RH  019%=      5-min Rain = 0
KMC5 011833Z 02012KT 10/M12 A3039 RMK A01 T00961124  RH  020%=      5-min Rain = 0
KMC5 011834Z 01007KT 10/M13 A3039 RMK A01 T00951128  RH  019%=      5-min Rain = 0
KMC5 011835Z 02011KT 10/M13 A3039 RMK A01 T00961126  RH  020%=      5-min Rain = 0
KMC5 011836Z 02015KT 10/M13 A3038 RMK A01 T00951125  RH  020%=      5-min Rain = 0
KMC5 011837Z 03012KT 10/M13 A3039 RMK A01 T00951126  RH  020%=      5-min Rain = 0
KMC5 011838Z 01014KT 10/M13 A3038 RMK A01 T00951127  RH  019%=      5-min Rain = 0
KMC5 011839Z 01007KT 09/M13 A3039 RMK A01 T00941129  RH  019%=      5-min Rain = 0
KMC5 011840Z 03009G18KT 09/M13 A3039 RMK A01 T00931128  RH  020%=      5-min Rain = 0
KMC5 011841Z 04015KT 10/M13 A3038 RMK A01 T00971134  RH  018%=      5-min Rain = 0
KMC5 011842Z 04013G18KT 10/M14 A3038 RMK A01 T00991139  RH  017%=      5-min Rain = 0
KMC5 011843Z 04009KT 10/M14 A3039 RMK A01 T00951139  RH  018%=      5-min Rain = 0
KMC5 011844Z 05011KT 09/M14 A3038 RMK A01 T00941143  RH  017%=      5-min Rain = 0
KMC5 011845Z 05010KT 10/M15 A3038 RMK A01 T00961147  RH  016%=      5-min Rain = 0
KMC5 011846Z 05009KT 10/M15 A3038 RMK A01 T00961147  RH  016%=      5-min Rain = 0
KMC5 011847Z 07004KT 10/M15 A3038 RMK A01 T00961151  RH  016%=      5-min Rain = 0
KMC5 011848Z 04008G13KT 09/M15 A3038 RMK A01 T00921152  RH  016%=      5-min Rain = 0
KMC5 011849Z 05012KT 09/M16 A3038 RMK A01 T00931155  RH  016%=      5-min Rain = 0
KMC5 011850Z 06011KT 10/M15 A3038 RMK A01 T00951154  RH  016%=      5-min Rain = 0
KMC5 011851Z 06012KT 10/M15 A3038 RMK A01 T00981147  RH  016%=      5-min Rain = 0
KMC5 011852Z 06015KT 10/M15 A3038 RMK A01 T01041148  RH  015%=      5-min Rain = 0
KMC5 011853Z 06015KT 10/M16 A3038 RMK A01 T01031158  RH  014%=      5-min Rain = 0
KMC5 011854Z 06012G17KT 10/M17 A3038 RMK A01 T01001169  RH  013%=      5-min Rain = 0
KMC5 011855Z 07011KT 10/M17 A3038 RMK A01 T00961166  RH  014%=      5-min Rain = 0
KMC5 011856Z 07009KT 10/M16 A3038 RMK A01 T00961163  RH  014%=      5-min Rain = 0
KMC5 011857Z 06008KT 10/M16 A3038 RMK A01 T00951164  RH  014%=      5-min Rain = 0
KMC5 011858Z 03010KT 10/M16 A3038 RMK A01 T00961158  RH  015%=      5-min Rain = 0
KMC5 011859Z 04008KT 10/M15 A3038 RMK A01 T00991152  RH  015%=      5-min Rain = 0
KMC5 011900Z 03011KT 10/M15 A3038 RMK A01 T01001148  RH  016%=      5-min Rain = 0
KMC5 011901Z 07011KT 10/M15 A3038 RMK A01 T01011145  RH  016%=      5-min Rain = 0
KMC5 011902Z 07008KT 10/M15 A3038 RMK A01 T00981147  RH  016%=      5-min Rain = 0
KMC5 011903Z 07007KT 10/M15 A3038 RMK A01 T00971148  RH  016%=      5-min Rain = 0
KMC5 011904Z 08009KT 10/M15 A3038 RMK A01 T00971148  RH  016%=      5-min Rain = 0
KMC5 011905Z 06008KT 10/M15 A3038 RMK A01 T00981150  RH  016%=      5-min Rain = 0
KMC5 011906Z 04009G15KT 10/M15 A3038 RMK A01 T00971150  RH  016%=      5-min Rain = 0
KMC5 011907Z 04013KT 10/M15 A3038 RMK A01 T00981146  RH  016%=      5-min Rain = 0
KMC5 011908Z 05013KT 10/M15 A3038 RMK A01 T00971148  RH  016%=      5-min Rain = 0
KMC5 011909Z 05012KT 10/M15 A3038 RMK A01 T00971145  RH  017%=      5-min Rain = 0
KMC5 011910Z 06011KT 10/M14 A3038 RMK A01 T00991144  RH  017%=      5-min Rain = 0
KMC5 011911Z 05010KT 10/M15 A3038 RMK A01 T01001148  RH  016%=      5-min Rain = 0
KMC5 011912Z 04012KT 10/M15 A3037 RMK A01 T01011146  RH  016%=      5-min Rain = 0
KMC5 011913Z 03012KT 10/M15 A3037 RMK A01 T01001147  RH  016%=      5-min Rain = 0
KMC5 011914Z 03014KT 10/M15 A3037 RMK A01 T01001149  RH  016%=      5-min Rain = 0
KMC5 011915Z 05012KT 10/M15 A3037 RMK A01 T01011149  RH  016%=      5-min Rain = 0
KMC5 011916Z 06005G12KT 10/M15 A3038 RMK A01 T01021154  RH  015%=      5-min Rain = 0
KMC5 011917Z 04007G12KT 10/M15 A3037 RMK A01 T00991154  RH  015%=      5-min Rain = 0
KMC5 011918Z 03008KT 10/M15 A3037 RMK A01 T01011151  RH  015%=      5-min Rain = 0
KMC5 011919Z 35004KT 10/M16 A3037 RMK A01 T00971155  RH  015%=      5-min Rain = 0
KMC5 011920Z 06003KT 10/M15 A3037 RMK A01 T00951153  RH  016%=      5-min Rain = 0
KMC5 011921Z 07009KT 10/M15 A3037 RMK A01 T00951153  RH  016%=      5-min Rain = 0
KMC5 011922Z 07006KT 10/M15 A3037 RMK A01 T00961151  RH  016%=      5-min Rain = 0
KMC5 011923Z 08008KT 10/M15 A3037 RMK A01 T00951152  RH  016%=      5-min Rain = 0
KMC5 011924Z 05014KT 10/M14 A3036 RMK A01 T00991143  RH  017%=      5-min Rain = 0
KMC5 011925Z 03014KT 11/M14 A3036 RMK A01 T01061138  RH  017%=      5-min Rain = 0
KMC5 011926Z 03014KT 11/M14 A3037 RMK A01 T01061142  RH  016%=      5-min Rain = 0
KMC5 011927Z 03010KT 10/M15 A3037 RMK A01 T01031145  RH  016%=      5-min Rain = 0
KMC5 011928Z 03010KT 10/M14 A3037 RMK A01 T01021144  RH  016%=      5-min Rain = 0
KMC5 011929Z 03009KT 10/M14 A3037 RMK A01 T01041142  RH  016%=      5-min Rain = 0
KMC5 011930Z 02006KT 11/M15 A3037 RMK A01 T01051146  RH  016%=      5-min Rain = 0
KMC5 011931Z 02005KT 10/M15 A3037 RMK A01 T01001151  RH  015%=      5-min Rain = 0
KMC5 011932Z 35003KT 10/M15 A3037 RMK A01 T00981151  RH  016%=      5-min Rain = 0
KMC5 011933Z 03010G15KT 10/M15 A3037 RMK A01 T00981148  RH  016%=      5-min Rain = 0
KMC5 011934Z 02013KT 10/M14 A3036 RMK A01 T01021144  RH  016%=      5-min Rain = 0
KMC5 011935Z 02009KT 10/M15 A3036 RMK A01 T01021148  RH  016%=      5-min Rain = 0
KMC5 011936Z 01012KT 10/M15 A3036 RMK A01 T01011146  RH  016%=      5-min Rain = 0
KMC5 011937Z 02011KT 10/M15 A3036 RMK A01 T01011154  RH  015%=      5-min Rain = 0
KMC5 011938Z 02007KT 10/M15 A3036 RMK A01 T00991151  RH  015%=      5-min Rain = 0
KMC5 011939Z 02004KT 10/M16 A3036 RMK A01 T00991157  RH  015%=      5-min Rain = 0
KMC5 011940Z 07005KT 10/M15 A3036 RMK A01 T00991152  RH  015%=      5-min Rain = 0
KMC5 011941Z 03003KT 10/M15 A3036 RMK A01 T01031150  RH  015%=      5-min Rain = 0
KMC5 011942Z 35006KT 10/M15 A3036 RMK A01 T01041151  RH  015%=      5-min Rain = 0
KMC5 011943Z 03006G12KT 10/M15 A3036 RMK A01 T01041148  RH  015%=      5-min Rain = 0
KMC5 011944Z 04011KT 11/M15 A3036 RMK A01 T01081147  RH  015%=      5-min Rain = 0
KMC5 011945Z 04010KT 11/M15 A3036 RMK A01 T01051154  RH  015%=      5-min Rain = 0
KMC5 011946Z 06010KT 10/M16 A3036 RMK A01 T01021158  RH  014%=      5-min Rain = 0
KMC5 011947Z 06006KT 10/M16 A3036 RMK A01 T00991161  RH  014%=      5-min Rain = 0
KMC5 011948Z 05006KT 10/M16 A3036 RMK A01 T00981160  RH  015%=      5-min Rain = 0
KMC5 011949Z 05007KT 10/M16 A3036 RMK A01 T00971162  RH  014%=      5-min Rain = 0
KMC5 011950Z 06010KT 10/M16 A3036 RMK A01 T01001155  RH  015%=      5-min Rain = 0
KMC5 011951Z 09005KT 10/M16 A3036 RMK A01 T00991157  RH  015%=      5-min Rain = 0
KMC5 011952Z 10003KT 10/M16 A3036 RMK A01 T00961157  RH  015%=      5-min Rain = 0
KMC5 011953Z 07004KT 10/M16 A3036 RMK A01 T00961155  RH  015%=      5-min Rain = 0
KMC5 011954Z 01004KT 10/M16 A3036 RMK A01 T00981157  RH  015%=      5-min Rain = 0
KMC5 011955Z 01007KT 10/M15 A3036 RMK A01 T00991153  RH  015%=      5-min Rain = 0
KMC5 011956Z 00010G21KT 10/M16 A3035 RMK A01 T01021155  RH  015%=      5-min Rain = 0
KMC5 011957Z 07015G21KT 11/M15 A3035 RMK A01 T01071148  RH  015%=      5-min Rain = 0
KMC5 011958Z 06012KT 11/M16 A3035 RMK A01 T01091155  RH  014%=      5-min Rain = 0
KMC5 011959Z 06012KT 11/M16 A3035 RMK A01 T01071155  RH  014%=      5-min Rain = 0
KMC5 012000Z 05013KT 11/M16 A3035 RMK A01 T01051158  RH  014%=      5-min Rain = 0
KMC5 012001Z 04012KT 11/M16 A3035 RMK A01 T01051156  RH  014%=      5-min Rain = 0
KMC5 012002Z 05013KT 11/M16 A3035 RMK A01 T01061155  RH  014%=      5-min Rain = 0
KMC5 012003Z 05013KT 11/M16 A3035 RMK A01 T01071157  RH  014%=      5-min Rain = 0
KMC5 012004Z 05009KT 10/M16 A3035 RMK A01 T01031160  RH  014%=      5-min Rain = 0
KMC5 012005Z 06007KT 10/M16 A3035 RMK A01 T01031158  RH  014%=      5-min Rain = 0
KMC5 012006Z 05008KT 10/M16 A3035 RMK A01 T01031159  RH  014%=      5-min Rain = 0
KMC5 012007Z 03007KT 10/M16 A3035 RMK A01 T01021161  RH  014%=      5-min Rain = 0
KMC5 012008Z 03008KT 10/M15 A3035 RMK A01 T01031152  RH  015%=      5-min Rain = 0
KMC5 012009Z 02008KT 11/M15 A3035 RMK A01 T01081151  RH  015%=      5-min Rain = 0
KMC5 012010Z 03005KT 11/M16 A3035 RMK A01 T01071157  RH  014%=      5-min Rain = 0
KMC5 012011Z 03006KT 11/M16 A3035 RMK A01 T01051157  RH  014%=      5-min Rain = 0
KMC5 012012Z 04008G13KT 11/M16 A3035 RMK A01 T01051156  RH  014%=      5-min Rain = 0
KMC5 012013Z 08008KT 11/M16 A3035 RMK A01 T01061161  RH  014%=      5-min Rain = 0
KMC5 012014Z 05006KT 10/M16 A3035 RMK A01 T01041164  RH  014%=      5-min Rain = 0
KMC5 012015Z 04008KT 10/M16 A3035 RMK A01 T01021164  RH  014%=      5-min Rain = 0
KMC5 012016Z 02004KT 10/M17 A3035 RMK A01 T00981169  RH  013%=      5-min Rain = 0
KMC5 012017Z 05005KT 10/M17 A3035 RMK A01 T00971165  RH  014%=      5-min Rain = 0
KMC5 012018Z 10009KT 10/M16 A3035 RMK A01 T00991159  RH  015%=      5-min Rain = 0
KMC5 012019Z 09006KT 10/M16 A3035 RMK A01 T01031156  RH  015%=      5-min Rain = 0
KMC5 012020Z 07007KT 11/M15 A3035 RMK A01 T01061151  RH  015%=      5-min Rain = 0
KMC5 012021Z 05014KT 11/M15 A3034 RMK A01 T01101152  RH  014%=      5-min Rain = 0
KMC5 012022Z 04012KT 11/M15 A3035 RMK A01 T01091153  RH  014%=      5-min Rain = 0
KMC5 012023Z 03010KT 11/M15 A3035 RMK A01 T01081154  RH  014%=      5-min Rain = 0
KMC5 012024Z 02009KT 11/M15 A3035 RMK A01 T01061154  RH  014%=      5-min Rain = 0
KMC5 012025Z 05009KT 11/M15 A3035 RMK A01 T01061153  RH  015%=      5-min Rain = 0
KMC5 012026Z 04008KT 11/M15 A3035 RMK A01 T01101150  RH  015%=      5-min Rain = 0
KMC5 012027Z 02009KT 11/M15 A3035 RMK A01 T01111151  RH  014%=      5-min Rain = 0
KMC5 012028Z 05012KT 11/M15 A3035 RMK A01 T01111151  RH  014%=      5-min Rain = 0
KMC5 012029Z 06007KT 11/M15 A3035 RMK A01 T01111152  RH  014%=      5-min Rain = 0
KMC5 012030Z 03011G17KT 11/M15 A3035 RMK A01 T01111152  RH  014%=      5-min Rain = 0
KMC5 012031Z 02009KT 11/M16 A3035 RMK A01 T01111155  RH  014%=      5-min Rain = 0
KMC5 012032Z 00008KT 11/M16 A3035 RMK A01 T01081158  RH  014%=      5-min Rain = 0
KMC5 012033Z 34007KT 11/M16 A3035 RMK A01 T01061157  RH  014%=      5-min Rain = 0
KMC5 012034Z 34005KT 11/M16 A3035 RMK A01 T01071159  RH  014%=      5-min Rain = 0
KMC5 012035Z 04005KT 11/M16 A3034 RMK A01 T01081155  RH  014%=      5-min Rain = 0
KMC5 012036Z 05007KT 11/M16 A3034 RMK A01 T01081156  RH  014%=      5-min Rain = 0
KMC5 012037Z 05004KT 11/M16 A3034 RMK A01 T01051160  RH  014%=      5-min Rain = 0
KMC5 012038Z 06003KT 10/M16 A3034 RMK A01 T01041159  RH  014%=      5-min Rain = 0
KMC5 012039Z 05010KT 11/M16 A3034 RMK A01 T01051155  RH  014%=      5-min Rain = 0
KMC5 012040Z 33012KT 11/M16 A3034 RMK A01 T01081155  RH  014%=      5-min Rain = 0
KMC5 012041Z 35013KT 11/M16 A3034 RMK A01 T01091155  RH  014%=      5-min Rain = 0
KMC5 012042Z 35011KT 11/M16 A3034 RMK A01 T01101156  RH  014%=      5-min Rain = 0
KMC5 012043Z 01009KT 11/M16 A3034 RMK A01 T01081158  RH  014%=      5-min Rain = 0
KMC5 012044Z 01009KT 11/M16 A3034 RMK A01 T01061159  RH  014%=      5-min Rain = 0
KMC5 012045Z 02005KT 11/M16 A3034 RMK A01 T01051162  RH  014%=      5-min Rain = 0
KMC5 012046Z 02004KT 10/M16 A3034 RMK A01 T01041161  RH  014%=      5-min Rain = 0
KMC5 012047Z 34004KT 10/M16 A3034 RMK A01 T01041162  RH  014%=      5-min Rain = 0
KMC5 012048Z 35003KT 11/M17 A3034 RMK A01 T01051165  RH  013%=      5-min Rain = 0
KMC5 012049Z 04004KT 10/M17 A3034 RMK A01 T01031166  RH  013%=      5-min Rain = 0
KMC5 012050Z 05007KT 11/M16 A3034 RMK A01 T01051161  RH  014%=      5-min Rain = 0
KMC5 012051Z 05007KT 11/M16 A3034 RMK A01 T01071161  RH  014%=      5-min Rain = 0
KMC5 012052Z 05013G24KT 11/M16 A3034 RMK A01 T01081159  RH  014%=      5-min Rain = 0
KMC5 012053Z 35013G18KT 11/M16 A3033 RMK A01 T01111155  RH  014%=      5-min Rain = 0
KMC5 012054Z 36010KT 11/M16 A3034 RMK A01 T01101162  RH  013%=      5-min Rain = 0
KMC5 012055Z 34007KT 10/M17 A3034 RMK A01 T01041166  RH  013%=      5-min Rain = 0
KMC5 012056Z 01008KT 10/M16 A3034 RMK A01 T01021164  RH  014%=      5-min Rain = 0
KMC5 012057Z 02009KT 11/M16 A3034 RMK A01 T01051159  RH  014%=      5-min Rain = 0
KMC5 012058Z 35007KT 10/M16 A3034 RMK A01 T01041164  RH  014%=      5-min Rain = 0
KMC5 012059Z 34005KT 10/M16 A3034 RMK A01 T01031164  RH  014%=      5-min Rain = 0
KMC5 012100Z 31002KT 10/M17 A3034 RMK A01 T01021167  RH  013%=      5-min Rain = 0
KMC5 012101Z 32002KT 10/M17 A3034 RMK A01 T01011166  RH  014%=      5-min Rain = 0
KMC5 012102Z 02002KT 10/M17 A3034 RMK A01 T01021165  RH  014%=      5-min Rain = 0
KMC5 012103Z 07003KT 10/M16 A3034 RMK A01 T01041159  RH  014%=      5-min Rain = 0
KMC5 012104Z 08006KT 11/M15 A3034 RMK A01 T01091153  RH  014%=      5-min Rain = 0
KMC5 012105Z 06007KT 11/M16 A3034 RMK A01 T01111157  RH  014%=      5-min Rain = 0
KMC5 012106Z 03006KT 11/M16 A3034 RMK A01 T01111157  RH  014%=      5-min Rain = 0
KMC5 012107Z 02006KT 11/M16 A3034 RMK A01 T01101158  RH  014%=      5-min Rain = 0
KMC5 012108Z 35005KT 11/M16 A3034 RMK A01 T01091157  RH  014%=      5-min Rain = 0
KMC5 012109Z 35005KT 11/M16 A3034 RMK A01 T01091160  RH  014%=      5-min Rain = 0
KMC5 012110Z 34002KT 11/M16 A3034 RMK A01 T01071161  RH  014%=      5-min Rain = 0
KMC5 012111Z 01002KT 11/M16 A3034 RMK A01 T01061161  RH  014%=      5-min Rain = 0
KMC5 012112Z 06005KT 11/M16 A3034 RMK A01 T01071155  RH  014%=      5-min Rain = 0
KMC5 012113Z 01009KT 11/M15 A3034 RMK A01 T01121154  RH  014%=      5-min Rain = 0
KMC5 012114Z 01011KT 11/M15 A3034 RMK A01 T01131154  RH  014%=      5-min Rain = 0
KMC5 012115Z 35003KT 11/M16 A3034 RMK A01 T01091164  RH  013%=      5-min Rain = 0
KMC5 012116Z 00002KT 11/M16 A3034 RMK A01 T01051164  RH  013%=      5-min Rain = 0
KMC5 012117Z 04000KT 10/M17 A3034 RMK A01 T01031166  RH  013%=      5-min Rain = 0
KMC5 012118Z 13001KT 10/M17 A3034 RMK A01 T01011166  RH  014%=      5-min Rain = 0
KMC5 012119Z 11002KT 10/M16 A3034 RMK A01 T01001164  RH  014%=      5-min Rain = 0
KMC5 012120Z 11000KT 10/M16 A3034 RMK A01 T01011163  RH  014%=      5-min Rain = 0
KMC5 012121Z 20000KT 10/M16 A3034 RMK A01 T01011164  RH  014%=      5-min Rain = 0
KMC5 012122Z 00001KT 10/M16 A3034 RMK A01 T01021161  RH  014%=      5-min Rain = 0
KMC5 012123Z 03001KT 10/M16 A3034 RMK A01 T01041159  RH  014%=      5-min Rain = 0
KMC5 012124Z 05003KT 11/M16 A3034 RMK A01 T01061158  RH  014%=      5-min Rain = 0
KMC5 012125Z 03004KT 11/M16 A3034 RMK A01 T01071157  RH  014%=      5-min Rain = 0
KMC5 012126Z 04005KT 11/M16 A3034 RMK A01 T01071157  RH  014%=      5-min Rain = 0
KMC5 012127Z 03009KT 11/M15 A3034 RMK A01 T01091153  RH  014%=      5-min Rain = 0
KMC5 012128Z 03008KT 11/M16 A3034 RMK A01 T01091156  RH  014%=      5-min Rain = 0
KMC5 012129Z 06008KT 11/M16 A3034 RMK A01 T01091155  RH  014%=      5-min Rain = 0
KMC5 012130Z 06006KT 11/M16 A3034 RMK A01 T01091156  RH  014%=      5-min Rain = 0
KMC5 012131Z 06009KT 11/M16 A3034 RMK A01 T01081156  RH  014%=      5-min Rain = 0
KMC5 012132Z 07008KT 11/M16 A3034 RMK A01 T01091155  RH  014%=      5-min Rain = 0
KMC5 012133Z 07005KT 11/M16 A3034 RMK A01 T01081159  RH  014%=      5-min Rain = 0
KMC5 012134Z 05004KT 11/M16 A3034 RMK A01 T01071157  RH  014%=      5-min Rain = 0
KMC5 012135Z 03004KT 11/M16 A3034 RMK A01 T01081156  RH  014%=      5-min Rain = 0
KMC5 012136Z 03005KT 11/M16 A3034 RMK A01 T01081157  RH  014%=      5-min Rain = 0
KMC5 012137Z 04007KT 11/M16 A3034 RMK A01 T01081155  RH  014%=      5-min Rain = 0
KMC5 012138Z 06005KT 11/M16 A3034 RMK A01 T01091157  RH  014%=      5-min Rain = 0
KMC5 012139Z 03008KT 11/M16 A3034 RMK A01 T01071159  RH  014%=      5-min Rain = 0
KMC5 012140Z 35005KT 11/M16 A3034 RMK A01 T01061159  RH  014%=      5-min Rain = 0
KMC5 012141Z 31006KT 11/M16 A3034 RMK A01 T01071157  RH  014%=      5-min Rain = 0
KMC5 012142Z 32006KT 11/M15 A3034 RMK A01 T01091154  RH  014%=      5-min Rain = 0
KMC5 012143Z 35006KT 11/M16 A3034 RMK A01 T01111157  RH  014%=      5-min Rain = 0
KMC5 012144Z 36004KT 11/M16 A3034 RMK A01 T01101159  RH  014%=      5-min Rain = 0
KMC5 012145Z 01003KT 11/M16 A3034 RMK A01 T01081158  RH  014%=      5-min Rain = 0
KMC5 012146Z 00001KT 11/M16 A3034 RMK A01 T01071161  RH  014%=      5-min Rain = 0
KMC5 012147Z 34006G11KT 11/M16 A3034 RMK A01 T01061162  RH  014%=      5-min Rain = 0
KMC5 012148Z 03010KT 11/M15 A3033 RMK A01 T01081154  RH  014%=      5-min Rain = 0
KMC5 012149Z 06008KT 11/M16 A3034 RMK A01 T01101156  RH  014%=      5-min Rain = 0
KMC5 012150Z 05005KT 11/M16 A3034 RMK A01 T01071161  RH  014%=      5-min Rain = 0
KMC5 012151Z 04006KT 11/M16 A3034 RMK A01 T01051158  RH  014%=      5-min Rain = 0
KMC5 012152Z 03005KT 11/M16 A3034 RMK A01 T01061158  RH  014%=      5-min Rain = 0
KMC5 012153Z 04005KT 11/M16 A3034 RMK A01 T01061161  RH  014%=      5-min Rain = 0
KMC5 012154Z 04007KT 10/M16 A3034 RMK A01 T01041159  RH  014%=      5-min Rain = 0
KMC5 012155Z 03007KT 11/M16 A3034 RMK A01 T01071156  RH  014%=      5-min Rain = 0
KMC5 012156Z 02006KT 11/M16 A3034 RMK A01 T01091159  RH  014%=      5-min Rain = 0
KMC5 012157Z 00007KT 11/M16 A3034 RMK A01 T01091163  RH  013%=      5-min Rain = 0
KMC5 012158Z 00008KT 11/M17 A3034 RMK A01 T01081168  RH  013%=      5-min Rain = 0
KMC5 012159Z 36007KT 11/M17 A3033 RMK A01 T01081166  RH  013%=      5-min Rain = 0
KMC5 012200Z 35008KT 11/M16 A3033 RMK A01 T01101164  RH  013%=      5-min Rain = 0
KMC5 012201Z 36009KT 11/M17 A3033 RMK A01 T01111169  RH  012%=      5-min Rain = 0
KMC5 012202Z 35010KT 11/M17 A3033 RMK A01 T01101170  RH  012%=      5-min Rain = 0
KMC5 012203Z 36007KT 11/M17 A3033 RMK A01 T01091168  RH  013%=      5-min Rain = 0
KMC5 012204Z 36008KT 11/M17 A3033 RMK A01 T01101169  RH  012%=      5-min Rain = 0
KMC5 012205Z 34004KT 11/M17 A3033 RMK A01 T01111170  RH  012%=      5-min Rain = 0
KMC5 012206Z 35004KT 11/M18 A3033 RMK A01 T01091175  RH  012%=      5-min Rain = 0
KMC5 012207Z 00007KT 11/M17 A3033 RMK A01 T01091170  RH  012%=      5-min Rain = 0
KMC5 012208Z 00008KT 11/M17 A3033 RMK A01 T01091169  RH  013%=      5-min Rain = 0
KMC5 012209Z 36006KT 11/M17 A3033 RMK A01 T01081167  RH  013%=      5-min Rain = 0
KMC5 012210Z 34006KT 11/M16 A3033 RMK A01 T01101163  RH  013%=      5-min Rain = 0
KMC5 012211Z 34007KT 11/M17 A3033 RMK A01 T01111168  RH  013%=      5-min Rain = 0
KMC5 012212Z 35006KT 11/M17 A3033 RMK A01 T01081169  RH  013%=      5-min Rain = 0
KMC5 012213Z 36005KT 11/M17 A3033 RMK A01 T01071168  RH  013%=      5-min Rain = 0
KMC5 012214Z 33004KT 11/M17 A3033 RMK A01 T01081165  RH  013%=      5-min Rain = 0
KMC5 012215Z 31004KT 11/M17 A3033 RMK A01 T01081169  RH  013%=      5-min Rain = 0
KMC5 012216Z 30004KT 11/M17 A3033 RMK A01 T01081169  RH  013%=      5-min Rain = 0
KMC5 012217Z 31003KT 11/M17 A3033 RMK A01 T01061171  RH  013%=      5-min Rain = 0
KMC5 012218Z 28002KT 11/M17 A3033 RMK A01 T01061171  RH  013%=      5-min Rain = 0
KMC5 012219Z 28004KT 11/M17 A3033 RMK A01 T01061171  RH  013%=      5-min Rain = 0
KMC5 012220Z 25002KT 11/M17 A3033 RMK A01 T01061170  RH  013%=      5-min Rain = 0
KMC5 012221Z 26001KT 11/M17 A3033 RMK A01 T01071171  RH  013%=      5-min Rain = 0
KMC5 012222Z 33005KT 11/M17 A3033 RMK A01 T01081169  RH  013%=      5-min Rain = 0
KMC5 012223Z 03007KT 11/M16 A3033 RMK A01 T01091163  RH  013%=      5-min Rain = 0
KMC5 012224Z 03006KT 11/M17 A3033 RMK A01 T01091166  RH  013%=      5-min Rain = 0
KMC5 012225Z 02004KT 11/M17 A3033 RMK A01 T01071168  RH  013%=      5-min Rain = 0
KMC5 012226Z 05003KT 11/M17 A3033 RMK A01 T01061166  RH  013%=      5-min Rain = 0
KMC5 012227Z 01003KT 11/M16 A3033 RMK A01 T01061163  RH  013%=      5-min Rain = 0
KMC5 012228Z 01006KT 11/M16 A3033 RMK A01 T01091160  RH  014%=      5-min Rain = 0
KMC5 012229Z 01006KT 11/M16 A3033 RMK A01 T01091162  RH  013%=      5-min Rain = 0
KMC5 012230Z 35007KT 11/M16 A3033 RMK A01 T01091160  RH  014%=      5-min Rain = 0
KMC5 012231Z 00005KT 11/M16 A3033 RMK A01 T01091161  RH  013%=      5-min Rain = 0
KMC5 012232Z 01004KT 11/M16 A3033 RMK A01 T01091159  RH  014%=      5-min Rain = 0
KMC5 012233Z 03002KT 11/M16 A3033 RMK A01 T01091163  RH  013%=      5-min Rain = 0
KMC5 012234Z 07001KT 11/M17 A3033 RMK A01 T01071165  RH  013%=      5-min Rain = 0
KMC5 012235Z 06004KT 11/M16 A3033 RMK A01 T01071162  RH  014%=      5-min Rain = 0
KMC5 012236Z 03003KT 11/M16 A3033 RMK A01 T01071163  RH  013%=      5-min Rain = 0
KMC5 012237Z 00000KT 11/M17 A3033 RMK A01 T01061166  RH  013%=      5-min Rain = 0
KMC5 012238Z 08001KT 11/M16 A3033 RMK A01 T01061162  RH  014%=      5-min Rain = 0
KMC5 012239Z 34004KT 11/M16 A3033 RMK A01 T01091158  RH  014%=      5-min Rain = 0
KMC5 012240Z 35003KT 11/M16 A3033 RMK A01 T01101164  RH  013%=      5-min Rain = 0
KMC5 012241Z 35003KT 11/M17 A3033 RMK A01 T01081166  RH  013%=      5-min Rain = 0
KMC5 012242Z 00003KT 11/M16 A3033 RMK A01 T01081161  RH  014%=      5-min Rain = 0
KMC5 012243Z 01006KT 11/M16 A3033 RMK A01 T01081159  RH  014%=      5-min Rain = 0
KMC5 012244Z 04006KT 11/M16 A3033 RMK A01 T01091155  RH  014%=      5-min Rain = 0
KMC5 012245Z 03006KT 11/M16 A3033 RMK A01 T01101156  RH  014%=      5-min Rain = 0
KMC5 012246Z 04005KT 11/M16 A3033 RMK A01 T01091157  RH  014%=      5-min Rain = 0
KMC5 012247Z 04005KT 11/M16 A3033 RMK A01 T01081160  RH  014%=      5-min Rain = 0
KMC5 012248Z 02006KT 11/M16 A3033 RMK A01 T01071160  RH  014%=      5-min Rain = 0
KMC5 012249Z 02007KT 11/M16 A3033 RMK A01 T01071158  RH  014%=      5-min Rain = 0
KMC5 012250Z 03005KT 11/M16 A3033 RMK A01 T01071159  RH  014%=      5-min Rain = 0
KMC5 012251Z 06004KT 11/M16 A3033 RMK A01 T01071158  RH  014%=      5-min Rain = 0
KMC5 012252Z 07003KT 11/M16 A3033 RMK A01 T01081156  RH  014%=      5-min Rain = 0
KMC5 012253Z 08003KT 11/M16 A3033 RMK A01 T01071162  RH  013%=      5-min Rain = 0
KMC5 012254Z 07002KT 11/M16 A3033 RMK A01 T01051162  RH  014%=      5-min Rain = 0
KMC5 012255Z 10001KT 10/M16 A3033 RMK A01 T01041162  RH  014%=      5-min Rain = 0
KMC5 012256Z 09001KT 11/M16 A3033 RMK A01 T01051162  RH  014%=      5-min Rain = 0
KMC5 012257Z 21000KT 11/M16 A3033 RMK A01 T01081156  RH  014%=      5-min Rain = 0
KMC5 012258Z 04000KT 11/M16 A3033 RMK A01 T01111156  RH  014%=      5-min Rain = 0
KMC5 012259Z 31000KT 11/M16 A3033 RMK A01 T01131155  RH  014%=      5-min Rain = 0
KMC5 012300Z 33004KT 11/M16 A3033 RMK A01 T01131157  RH  014%=      5-min Rain = 0
KMC5 012301Z 34004KT 11/M16 A3033 RMK A01 T01111159  RH  013%=      5-min Rain = 0
KMC5 012302Z 35009KT 11/M15 A3033 RMK A01 T01091154  RH  014%=      5-min Rain = 0
KMC5 012303Z 01010KT 11/M15 A3033 RMK A01 T01091146  RH  015%=      5-min Rain = 0
KMC5 012304Z 00008KT 11/M15 A3033 RMK A01 T01101147  RH  015%=      5-min Rain = 0
KMC5 012305Z 36005KT 11/M15 A3033 RMK A01 T01101149  RH  015%=      5-min Rain = 0
KMC5 012306Z 00006KT 11/M15 A3033 RMK A01 T01091149  RH  015%=      5-min Rain = 0
KMC5 012307Z 01007KT 11/M15 A3033 RMK A01 T01091151  RH  015%=      5-min Rain = 0
KMC5 012308Z 35008KT 11/M15 A3033 RMK A01 T01071152  RH  015%=      5-min Rain = 0
KMC5 012309Z 35006KT 11/M15 A3033 RMK A01 T01061152  RH  015%=      5-min Rain = 0
KMC5 012310Z 34006KT 11/M15 A3033 RMK A01 T01061152  RH  015%=      5-min Rain = 0
KMC5 012311Z 35006KT 11/M15 A3033 RMK A01 T01071152  RH  015%=      5-min Rain = 0
KMC5 012312Z 35005KT 11/M15 A3033 RMK A01 T01061152  RH  015%=      5-min Rain = 0
KMC5 012313Z 00010KT 11/M15 A3033 RMK A01 T01061151  RH  015%=      5-min Rain = 0
KMC5 012314Z 00008KT 11/M15 A3033 RMK A01 T01061150  RH  015%=      5-min Rain = 0
KMC5 012315Z 00006KT 11/M15 A3033 RMK A01 T01051151  RH  015%=      5-min Rain = 0
KMC5 012316Z 00006KT 11/M15 A3033 RMK A01 T01051149  RH  015%=      5-min Rain = 0
KMC5 012317Z 35005KT 11/M15 A3033 RMK A01 T01051153  RH  015%=      5-min Rain = 0
KMC5 012318Z 35004KT 10/M16 A3033 RMK A01 T01031155  RH  015%=      5-min Rain = 0
KMC5 012319Z 34004KT 10/M16 A3033 RMK A01 T01031155  RH  015%=      5-min Rain = 0
KMC5 012320Z 34006KT 10/M15 A3033 RMK A01 T01031154  RH  015%=      5-min Rain = 0
KMC5 012321Z 34004KT 10/M15 A3033 RMK A01 T01021154  RH  015%=      5-min Rain = 0
KMC5 012322Z 34005KT 10/M15 A3033 RMK A01 T01031152  RH  015%=      5-min Rain = 0
KMC5 012323Z 35006KT 10/M15 A3033 RMK A01 T01031153  RH  015%=      5-min Rain = 0
KMC5 012324Z 34004KT 10/M16 A3033 RMK A01 T01031156  RH  015%=      5-min Rain = 0
KMC5 012325Z 34003KT 10/M16 A3033 RMK A01 T01021155  RH  015%=      5-min Rain = 0
KMC5 012326Z 33002KT 10/M16 A3033 RMK A01 T01031155  RH  015%=      5-min Rain = 0
KMC5 012327Z 32002KT 10/M16 A3032 RMK A01 T01031155  RH  015%=      5-min Rain = 0
KMC5 012328Z 29002KT 10/M15 A3032 RMK A01 T01041152  RH  015%=      5-min Rain = 0
KMC5 012329Z 27002KT 11/M15 A3032 RMK A01 T01061152  RH  015%=      5-min Rain = 0
KMC5 012330Z 25001KT 11/M15 A3032 RMK A01 T01071153  RH  015%=      5-min Rain = 0
KMC5 012331Z 24001KT 11/M15 A3032 RMK A01 T01081152  RH  014%=      5-min Rain = 0
KMC5 012332Z 33001KT 11/M15 A3032 RMK A01 T01091153  RH  014%=      5-min Rain = 0
KMC5 012333Z 34001KT 11/M15 A3032 RMK A01 T01091152  RH  014%=      5-min Rain = 0
KMC5 012334Z 00003KT 11/M15 A3032 RMK A01 T01091153  RH  014%=      5-min Rain = 0
KMC5 012335Z 35004KT 11/M15 A3032 RMK A01 T01071152  RH  015%=      5-min Rain = 0
KMC5 012336Z 35005KT 11/M15 A3032 RMK A01 T01061150  RH  015%=      5-min Rain = 0
KMC5 012337Z 34005KT 11/M15 A3032 RMK A01 T01051149  RH  015%=      5-min Rain = 0
KMC5 012338Z 34005KT 10/M15 A3032 RMK A01 T01041151  RH  015%=      5-min Rain = 0
KMC5 012339Z 34005KT 10/M15 A3032 RMK A01 T01031152  RH  015%=      5-min Rain = 0
KMC5 012340Z 34004KT 10/M15 A3032 RMK A01 T01031152  RH  015%=      5-min Rain = 0
KMC5 012341Z 32003KT 10/M15 A3032 RMK A01 T01021152  RH  015%=      5-min Rain = 0
KMC5 012342Z 31004KT 10/M15 A3032 RMK A01 T01021151  RH  015%=      5-min Rain = 0
KMC5 012343Z 30003KT 10/M15 A3032 RMK A01 T01021152  RH  015%=      5-min Rain = 0
KMC5 012344Z 29003KT 10/M15 A3032 RMK A01 T01021154  RH  015%=      5-min Rain = 0
KMC5 012345Z 29002KT 10/M15 A3032 RMK A01 T01021154  RH  015%=      5-min Rain = 0
KMC5 012346Z 31002KT 10/M15 A3032 RMK A01 T01031153  RH  015%=      5-min Rain = 0
KMC5 012347Z 31002KT 10/M15 A3032 RMK A01 T01031150  RH  015%=      5-min Rain = 0
KMC5 012348Z 32001KT 10/M15 A3032 RMK A01 T01041152  RH  015%=      5-min Rain = 0
KMC5 012349Z 34001KT 10/M15 A3032 RMK A01 T01041152  RH  015%=      5-min Rain = 0
KMC5 012350Z 35001KT 10/M15 A3032 RMK A01 T01041153  RH  015%=      5-min Rain = 0
KMC5 012351Z 34001KT 11/M15 A3032 RMK A01 T01051153  RH  015%=      5-min Rain = 0
KMC5 012352Z 36001KT 11/M15 A3033 RMK A01 T01051152  RH  015%=      5-min Rain = 0
KMC5 012353Z 02001KT 11/M15 A3033 RMK A01 T01051153  RH  015%=      5-min Rain = 0
KMC5 012354Z 02000KT 10/M15 A3033 RMK A01 T01041154  RH  015%=      5-min Rain = 0
KMC5 012355Z 00000KT 10/M16 A3033 RMK A01 T01031155  RH  015%=      5-min Rain = 0
KMC5 012356Z 03000KT 10/M15 A3033 RMK A01 T01041154  RH  015%=      5-min Rain = 0
KMC5 012357Z 02001KT 11/M15 A3033 RMK A01 T01061151  RH  015%=      5-min Rain = 0
KMC5 012358Z 03001KT 11/M15 A3033 RMK A01 T01071151  RH  015%=      5-min Rain = 0
KMC5 012359Z 01001KT 11/M15 A3033 RMK A01 T01061152  RH  015%=      5-min Rain = 0
KMC5 020000Z 01001KT 11/M15 A3033 RMK A01 T01051154  RH  015%=      5-min Rain = 0
KMC5 020001Z 00000KT 10/M16 A3033 RMK A01 T01031155  RH  015%=      5-min Rain = 0
KMC5 020002Z 00000KT 10/M15 A3033 RMK A01 T01031154  RH  015%=      5-min Rain = 0
KMC5 020003Z 00000KT 10/M15 A3033 RMK A01 T01031153  RH  015%=      5-min Rain = 0
KMC5 020004Z 21001KT 11/M15 A3033 RMK A01 T01051151  RH  015%=      5-min Rain = 0
KMC5 020005Z 23002KT 11/M15 A3033 RMK A01 T01051146  RH  016%=      5-min Rain = 0
KMC5 020006Z 28002KT 11/M14 A3033 RMK A01 T01051144  RH  016%=      5-min Rain = 0
KMC5 020007Z 29001KT 11/M15 A3033 RMK A01 T01051149  RH  015%=      5-min Rain = 0
KMC5 020008Z 27002KT 11/M15 A3033 RMK A01 T01051148  RH  015%=      5-min Rain = 0
KMC5 020009Z 27002KT 11/M15 A3033 RMK A01 T01051147  RH  016%=      5-min Rain = 0
KMC5 020010Z 27002KT 10/M15 A3033 RMK A01 T01041147  RH  016%=      5-min Rain = 0
KMC5 020011Z 30001KT 10/M14 A3033 RMK A01 T01031143  RH  016%=      5-min Rain = 0
KMC5 020012Z 29002KT 10/M14 A3033 RMK A01 T01021139  RH  017%=      5-min Rain = 0
KMC5 020013Z 29002KT 10/M14 A3033 RMK A01 T01011138  RH  017%=      5-min Rain = 0
KMC5 020014Z 31002KT 10/M14 A3033 RMK A01 T01001140  RH  017%=      5-min Rain = 0
KMC5 020015Z 31002KT 10/M14 A3033 RMK A01 T00991140  RH  017%=      5-min Rain = 0
KMC5 020016Z 31003KT 10/M14 A3033 RMK A01 T00981142  RH  017%=      5-min Rain = 0
KMC5 020017Z 31004KT 10/M14 A3033 RMK A01 T00971143  RH  017%=      5-min Rain = 0
KMC5 020018Z 31004KT 10/M14 A3033 RMK A01 T00961141  RH  017%=      5-min Rain = 0
KMC5 020019Z 30004KT 09/M14 A3033 RMK A01 T00941142  RH  017%=      5-min Rain = 0
KMC5 020020Z 30004KT 09/M14 A3033 RMK A01 T00941143  RH  017%=      5-min Rain = 0
KMC5 020021Z 29004KT 09/M14 A3033 RMK A01 T00921141  RH  018%=      5-min Rain = 0
KMC5 020022Z 29003KT 09/M14 A3033 RMK A01 T00921137  RH  018%=      5-min Rain = 0
KMC5 020023Z 29003KT 09/M14 A3033 RMK A01 T00911138  RH  018%=      5-min Rain = 0
KMC5 020024Z 29003KT 09/M14 A3033 RMK A01 T00901138  RH  018%=      5-min Rain = 0
KMC5 020025Z 29003KT 09/M14 A3033 RMK A01 T00891137  RH  019%=      5-min Rain = 0
KMC5 020026Z 29003KT 09/M14 A3033 RMK A01 T00891137  RH  019%=      5-min Rain = 0
KMC5 020027Z 29003KT 09/M14 A3033 RMK A01 T00881138  RH  019%=      5-min Rain = 0
KMC5 020028Z 29003KT 09/M14 A3033 RMK A01 T00881139  RH  018%=      5-min Rain = 0
KMC5 020029Z 29003KT 09/M14 A3033 RMK A01 T00881141  RH  018%=      5-min Rain = 0
KMC5 020030Z 29003KT 09/M14 A3033 RMK A01 T00891142  RH  018%=      5-min Rain = 0
KMC5 020031Z 29003KT 09/M14 A3033 RMK A01 T00881141  RH  018%=      5-min Rain = 0
KMC5 020032Z 29003KT 09/M14 A3033 RMK A01 T00881142  RH  018%=      5-min Rain = 0
KMC5 020033Z 28003KT 09/M15 A3033 RMK A01 T00881145  RH  018%=      5-min Rain = 0
KMC5 020034Z 27003KT 09/M14 A3033 RMK A01 T00881144  RH  018%=      5-min Rain = 0
KMC5 020035Z 26003KT 09/M14 A3033 RMK A01 T00881143  RH  018%=      5-min Rain = 0
KMC5 020036Z 25003KT 09/M14 A3033 RMK A01 T00871144  RH  018%=      5-min Rain = 0
KMC5 020037Z 25003KT 09/M14 A3033 RMK A01 T00871143  RH  018%=      5-min Rain = 0
KMC5 020038Z 25003KT 09/M14 A3033 RMK A01 T00851143  RH  018%=      5-min Rain = 0
KMC5 020039Z 25002KT 08/M14 A3033 RMK A01 T00841143  RH  018%=      5-min Rain = 0
KMC5 020040Z 25002KT 08/M14 A3033 RMK A01 T00831143  RH  018%=      5-min Rain = 0
KMC5 020041Z 25002KT 08/M14 A3033 RMK A01 T00821144  RH  019%=      5-min Rain = 0
KMC5 020042Z 25002KT 08/M14 A3033 RMK A01 T00811143  RH  019%=      5-min Rain = 0
KMC5 020043Z 25002KT 08/M14 A3033 RMK A01 T00811144  RH  019%=      5-min Rain = 0
KMC5 020044Z 25002KT 08/M15 A3033 RMK A01 T00801145  RH  019%=      5-min Rain = 0
KMC5 020045Z 25002KT 08/M15 A3033 RMK A01 T00801146  RH  018%=      5-min Rain = 0
KMC5 020046Z 24002KT 08/M15 A3033 RMK A01 T00801148  RH  018%=      5-min Rain = 0
KMC5 020047Z 25002KT 08/M15 A3033 RMK A01 T00811149  RH  018%=      5-min Rain = 0
KMC5 020048Z 25002KT 08/M15 A3033 RMK A01 T00811149  RH  018%=      5-min Rain = 0
KMC5 020049Z 25002KT 08/M15 A3033 RMK A01 T00821149  RH  018%=      5-min Rain = 0
KMC5 020050Z 25002KT 08/M15 A3033 RMK A01 T00821148  RH  018%=      5-min Rain = 0
KMC5 020051Z 25002KT 08/M15 A3033 RMK A01 T00821148  RH  018%=      5-min Rain = 0
KMC5 020052Z 26002KT 08/M15 A3033 RMK A01 T00821148  RH  018%=      5-min Rain = 0
KMC5 020053Z 24002KT 08/M15 A3033 RMK A01 T00831148  RH  018%=      5-min Rain = 0
KMC5 020054Z 25002KT 08/M15 A3033 RMK A01 T00831147  RH  018%=      5-min Rain = 0
KMC5 020055Z 25002KT 08/M15 A3033 RMK A01 T00821147  RH  018%=      5-min Rain = 0
KMC5 020056Z 25002KT 08/M15 A3033 RMK A01 T00811148  RH  018%=      5-min Rain = 0
KMC5 020057Z 25002KT 08/M15 A3033 RMK A01 T00821148  RH  018%=      5-min Rain = 0
KMC5 020058Z 24002KT 08/M15 A3033 RMK A01 T00811149  RH  018%=      5-min Rain = 0
KMC5 020059Z 23002KT 08/M15 A3033 RMK A01 T00811149  RH  018%=      5-min Rain = 0
KMC5 020100Z 23002KT 08/M15 A3033 RMK A01 T00821149  RH  018%=      5-min Rain = 0
KMC5 020101Z 23002KT 08/M15 A3033 RMK A01 T00811149  RH  018%=      5-min Rain = 0
KMC5 020102Z 23002KT 08/M15 A3033 RMK A01 T00821149  RH  018%=      5-min Rain = 0
KMC5 020103Z 22002KT 08/M15 A3033 RMK A01 T00811150  RH  018%=      5-min Rain = 0
KMC5 020104Z 22002KT 08/M15 A3033 RMK A01 T00811150  RH  018%=      5-min Rain = 0
KMC5 020105Z 22002KT 08/M15 A3033 RMK A01 T00821150  RH  018%=      5-min Rain = 0
KMC5 020106Z 21002KT 08/M15 A3033 RMK A01 T00821150  RH  018%=      5-min Rain = 0
KMC5 020107Z 21002KT 08/M15 A3033 RMK A01 T00821150  RH  018%=      5-min Rain = 0
KMC5 020108Z 20002KT 08/M15 A3033 RMK A01 T00821150  RH  018%=      5-min Rain = 0
KMC5 020109Z 20003KT 08/M15 A3033 RMK A01 T00811150  RH  018%=      5-min Rain = 0
KMC5 020110Z 21002KT 08/M15 A3033 RMK A01 T00821150  RH  018%=      5-min Rain = 0
KMC5 020111Z 21003KT 08/M15 A3033 RMK A01 T00811151  RH  018%=      5-min Rain = 0
KMC5 020112Z 22003KT 08/M15 A3033 RMK A01 T00811151  RH  018%=      5-min Rain = 0
KMC5 020113Z 22002KT 08/M15 A3033 RMK A01 T00801150  RH  018%=      5-min Rain = 0
KMC5 020114Z 22002KT 08/M15 A3033 RMK A01 T00801150  RH  018%=      5-min Rain = 0
KMC5 020115Z 21002KT 08/M15 A3033 RMK A01 T00781150  RH  018%=      5-min Rain = 0
KMC5 020116Z 21002KT 08/M15 A3033 RMK A01 T00781149  RH  018%=      5-min Rain = 0
KMC5 020117Z 21002KT 08/M15 A3033 RMK A01 T00791150  RH  018%=      5-min Rain = 0
KMC5 020118Z 21002KT 08/M15 A3033 RMK A01 T00791150  RH  018%=      5-min Rain = 0
KMC5 020119Z 21002KT 08/M15 A3033 RMK A01 T00791151  RH  018%=      5-min Rain = 0
KMC5 020120Z 21002KT 08/M15 A3033 RMK A01 T00801151  RH  018%=      5-min Rain = 0
KMC5 020121Z 20002KT 08/M15 A3033 RMK A01 T00811151  RH  018%=      5-min Rain = 0
KMC5 020122Z 20002KT 08/M15 A3033 RMK A01 T00821151  RH  018%=      5-min Rain = 0
KMC5 020123Z 20002KT 08/M15 A3033 RMK A01 T00821151  RH  017%=      5-min Rain = 0
KMC5 020124Z 21002KT 08/M15 A3033 RMK A01 T00821151  RH  017%=      5-min Rain = 0
KMC5 020125Z 21002KT 08/M15 A3033 RMK A01 T00821151  RH  018%=      5-min Rain = 0
KMC5 020126Z 21002KT 08/M15 A3033 RMK A01 T00811151  RH  018%=      5-min Rain = 0
KMC5 020127Z 21002KT 08/M15 A3033 RMK A01 T00811151  RH  018%=      5-min Rain = 0
KMC5 020128Z 22002KT 08/M15 A3033 RMK A01 T00791149  RH  018%=      5-min Rain = 0
KMC5 020129Z 22003KT 08/M15 A3033 RMK A01 T00771149  RH  018%=      5-min Rain = 0
KMC5 020130Z 22003KT 08/M15 A3033 RMK A01 T00751149  RH  019%=      5-min Rain = 0
KMC5 020131Z 22003KT 07/M15 A3033 RMK A01 T00741148  RH  019%=      5-min Rain = 0
KMC5 020132Z 22003KT 07/M15 A3033 RMK A01 T00731147  RH  019%=      5-min Rain = 0
KMC5 020133Z 22003KT 07/M15 A3033 RMK A01 T00721147  RH  019%=      5-min Rain = 0
KMC5 020134Z 22003KT 07/M15 A3033 RMK A01 T00711147  RH  019%=      5-min Rain = 0
KMC5 020135Z 22003KT 07/M15 A3033 RMK A01 T00721146  RH  019%=      5-min Rain = 0
KMC5 020136Z 22003KT 07/M15 A3033 RMK A01 T00711146  RH  020%=      5-min Rain = 0
KMC5 020137Z 22003KT 07/M15 A3033 RMK A01 T00721146  RH  019%=      5-min Rain = 0
KMC5 020138Z 22003KT 07/M15 A3033 RMK A01 T00731147  RH  019%=      5-min Rain = 0
KMC5 020139Z 22003KT 07/M15 A3033 RMK A01 T00731147  RH  019%=      5-min Rain = 0
KMC5 020140Z 22004KT 07/M15 A3033 RMK A01 T00711145  RH  020%=      5-min Rain = 0
KMC5 020141Z 24004KT 07/M15 A3033 RMK A01 T00691146  RH  020%=      5-min Rain = 0
KMC5 020142Z 24004KT 07/M15 A3033 RMK A01 T00671145  RH  020%=      5-min Rain = 0
KMC5 020143Z 23004KT 07/M14 A3033 RMK A01 T00651144  RH  021%=      5-min Rain = 0
KMC5 020144Z 23004KT 06/M14 A3033 RMK A01 T00641144  RH  021%=      5-min Rain = 0
KMC5 020145Z 23004KT 06/M14 A3033 RMK A01 T00631144  RH  021%=      5-min Rain = 0
KMC5 020146Z 22004KT 06/M14 A3033 RMK A01 T00631144  RH  021%=      5-min Rain = 0
KMC5 020147Z 22004KT 06/M14 A3033 RMK A01 T00631144  RH  021%=      5-min Rain = 0
KMC5 020148Z 22003KT 06/M14 A3033 RMK A01 T00631144  RH  021%=      5-min Rain = 0
KMC5 020149Z 22004KT 06/M14 A3033 RMK A01 T00631144  RH  021%=      5-min Rain = 0
KMC5 020150Z 23003KT 06/M14 A3033 RMK A01 T00631144  RH  021%=      5-min Rain = 0
KMC5 020151Z 23003KT 06/M15 A3033 RMK A01 T00641145  RH  021%=      5-min Rain = 0
KMC5 020152Z 23003KT 06/M15 A3033 RMK A01 T00641145  RH  021%=      5-min Rain = 0
KMC5 020153Z 24003KT 06/M14 A3033 RMK A01 T00641144  RH  021%=      5-min Rain = 0
KMC5 020154Z 24003KT 06/M14 A3033 RMK A01 T00631144  RH  021%=      5-min Rain = 0
KMC5 020155Z 24003KT 06/M14 A3033 RMK A01 T00611144  RH  021%=      5-min Rain = 0
KMC5 020156Z 24002KT 06/M14 A3033 RMK A01 T00601143  RH  022%=      5-min Rain = 0
KMC5 020157Z 24002KT 06/M14 A3033 RMK A01 T00601143  RH  022%=      5-min Rain = 0
KMC5 020158Z 25003KT 06/M14 A3033 RMK A01 T00601143  RH  022%=      5-min Rain = 0
KMC5 020159Z 25003KT 06/M14 A3033 RMK A01 T00601143  RH  022%=      5-min Rain = 0
KMC5 020200Z 25003KT 06/M14 A3033 RMK A01 T00601143  RH  022%=      5-min Rain = 0
KMC5 020201Z 25003KT 06/M14 A3033 RMK A01 T00601143  RH  022%=      5-min Rain = 0
KMC5 020202Z 25003KT 06/M14 A3033 RMK A01 T00591143  RH  022%=      5-min Rain = 0
KMC5 020203Z 25003KT 06/M14 A3033 RMK A01 T00591143  RH  022%=      5-min Rain = 0
KMC5 020204Z 24003KT 06/M14 A3033 RMK A01 T00591143  RH  022%=      5-min Rain = 0
KMC5 020205Z 23003KT 06/M14 A3033 RMK A01 T00601143  RH  022%=      5-min Rain = 0
KMC5 020206Z 23003KT 06/M14 A3033 RMK A01 T00601143  RH  022%=      5-min Rain = 0
KMC5 020207Z 23003KT 06/M14 A3033 RMK A01 T00611143  RH  022%=      5-min Rain = 0
KMC5 020208Z 23003KT 06/M14 A3033 RMK A01 T00621143  RH  021%=      5-min Rain = 0
KMC5 020209Z 22003KT 06/M14 A3033 RMK A01 T00621143  RH  021%=      5-min Rain = 0
KMC5 020210Z 21003KT 06/M14 A3033 RMK A01 T00631143  RH  021%=      5-min Rain = 0
KMC5 020211Z 21003KT 06/M14 A3033 RMK A01 T00631144  RH  021%=      5-min Rain = 0
KMC5 020212Z 21003KT 06/M14 A3033 RMK A01 T00631144  RH  021%=      5-min Rain = 0
KMC5 020213Z 21003KT 06/M14 A3033 RMK A01 T00631144  RH  021%=      5-min Rain = 0
KMC5 020214Z 21004KT 06/M14 A3033 RMK A01 T00631144  RH  021%=      5-min Rain = 0
KMC5 020215Z 21004KT 06/M15 A3033 RMK A01 T00631145  RH  021%=      5-min Rain = 0
KMC5 020216Z 20004KT 06/M15 A3033 RMK A01 T00641146  RH  021%=      5-min Rain = 0
KMC5 020217Z 20004KT 07/M15 A3033 RMK A01 T00651147  RH  020%=      5-min Rain = 0
KMC5 020218Z 20004KT 07/M15 A3033 RMK A01 T00651147  RH  020%=      5-min Rain = 0
KMC5 020219Z 20004KT 07/M15 A3033 RMK A01 T00651148  RH  020%=      5-min Rain = 0
KMC5 020220Z 20004KT 07/M15 A3033 RMK A01 T00661150  RH  020%=      5-min Rain = 0
KMC5 020221Z 20004KT 07/M15 A3033 RMK A01 T00661150  RH  020%=      5-min Rain = 0
KMC5 020222Z 20004KT 07/M15 A3033 RMK A01 T00671151  RH  019%=      5-min Rain = 0
KMC5 020223Z 20004KT 07/M15 A3033 RMK A01 T00671151  RH  019%=      5-min Rain = 0
KMC5 020224Z 20004KT 07/M15 A3033 RMK A01 T00671151  RH  019%=      5-min Rain = 0
KMC5 020225Z 20004KT 07/M15 A3033 RMK A01 T00671151  RH  019%=      5-min Rain = 0
KMC5 020226Z 20004KT 07/M15 A3033 RMK A01 T00671152  RH  019%=      5-min Rain = 0
KMC5 020227Z 21004KT 07/M15 A3033 RMK A01 T00671151  RH  019%=      5-min Rain = 0
KMC5 020228Z 21004KT 07/M15 A3033 RMK A01 T00671151  RH  019%=      5-min Rain = 0
KMC5 020229Z 23004KT 07/M15 A3033 RMK A01 T00671151  RH  019%=      5-min Rain = 0
KMC5 020230Z 24004KT 07/M15 A3033 RMK A01 T00661149  RH  020%=      5-min Rain = 0
KMC5 020231Z 24004KT 07/M15 A3033 RMK A01 T00651147  RH  020%=      5-min Rain = 0
KMC5 020232Z 25004KT 06/M14 A3033 RMK A01 T00621144  RH  021%=      5-min Rain = 0
KMC5 020233Z 25004KT 06/M14 A3033 RMK A01 T00571143  RH  022%=      5-min Rain = 0
KMC5 020234Z 25004KT 05/M14 A3033 RMK A01 T00521142  RH  023%=      5-min Rain = 0
KMC5 020235Z 25004KT 05/M14 A3033 RMK A01 T00481140  RH  024%=      5-min Rain = 0
KMC5 020236Z 25004KT 05/M14 A3033 RMK A01 T00451140  RH  025%=      5-min Rain = 0
KMC5 020237Z 25004KT 04/M14 A3033 RMK A01 T00441139  RH  025%=      5-min Rain = 0
KMC5 020238Z 25003KT 04/M14 A3033 RMK A01 T00441138  RH  025%=      5-min Rain = 0
KMC5 020239Z 25003KT 05/M14 A3033 RMK A01 T00451138  RH  025%=      5-min Rain = 0
KMC5 020240Z 24003KT 05/M14 A3033 RMK A01 T00461138  RH  025%=      5-min Rain = 0
KMC5 020241Z 24003KT 05/M14 A3033 RMK A01 T00471139  RH  025%=      5-min Rain = 0
KMC5 020242Z 24003KT 05/M14 A3033 RMK A01 T00481140  RH  024%=      5-min Rain = 0
KMC5 020243Z 24003KT 05/M14 A3033 RMK A01 T00501140  RH  024%=      5-min Rain = 0
KMC5 020244Z 24003KT 05/M14 A3033 RMK A01 T00511141  RH  024%=      5-min Rain = 0
KMC5 020245Z 23003KT 05/M14 A3033 RMK A01 T00511142  RH  023%=      5-min Rain = 0
KMC5 020246Z 23003KT 05/M14 A3033 RMK A01 T00521143  RH  023%=      5-min Rain = 0
KMC5 020247Z 23003KT 05/M14 A3033 RMK A01 T00521142  RH  023%=      5-min Rain = 0
KMC5 020248Z 23003KT 05/M14 A3033 RMK A01 T00521142  RH  023%=      5-min Rain = 0
KMC5 020249Z 23003KT 05/M14 A3033 RMK A01 T00521143  RH  023%=      5-min Rain = 0
KMC5 020250Z 23003KT 05/M14 A3033 RMK A01 T00531143  RH  023%=      5-min Rain = 0
KMC5 020251Z 23003KT 05/M14 A3033 RMK A01 T00531144  RH  023%=      5-min Rain = 0
KMC5 020252Z 23003KT 05/M14 A3033 RMK A01 T00531144  RH  023%=      5-min Rain = 0
KMC5 020253Z 23004KT 05/M15 A3033 RMK A01 T00531145  RH  023%=      5-min Rain = 0
KMC5 020254Z 23004KT 05/M14 A3033 RMK A01 T00531144  RH  023%=      5-min Rain = 0
KMC5 020255Z 23004KT 05/M15 A3033 RMK A01 T00531145  RH  023%=      5-min Rain = 0
KMC5 020256Z 23003KT 05/M14 A3033 RMK A01 T00531144  RH  023%=      5-min Rain = 0
KMC5 020257Z 23003KT 05/M15 A3033 RMK A01 T00531145  RH  022%=      5-min Rain = 0
KMC5 020258Z 24003KT 05/M15 A3033 RMK A01 T00531146  RH  022%=      5-min Rain = 0
KMC5 020259Z 24003KT 05/M15 A3033 RMK A01 T00531146  RH  022%=      5-min Rain = 0
KMC5 020300Z 23003KT 05/M15 A3033 RMK A01 T00531146  RH  022%=      5-min Rain = 0
KMC5 020301Z 23003KT 05/M15 A3033 RMK A01 T00541147  RH  022%=      5-min Rain = 0
KMC5 020302Z 23003KT 05/M15 A3033 RMK A01 T00541147  RH  022%=      5-min Rain = 0
KMC5 020303Z 23003KT 05/M15 A3033 RMK A01 T00541147  RH  022%=      5-min Rain = 0
KMC5 020304Z 22003KT 05/M15 A3033 RMK A01 T00541147  RH  022%=      5-min Rain = 0
KMC5 020305Z 22004KT 05/M15 A3033 RMK A01 T00541148  RH  022%=      5-min Rain = 0
KMC5 020306Z 22004KT 05/M15 A3033 RMK A01 T00541147  RH  022%=      5-min Rain = 0
KMC5 020307Z 22005KT 05/M15 A3033 RMK A01 T00541147  RH  022%=      5-min Rain = 0
KMC5 020308Z 22004KT 05/M15 A3033 RMK A01 T00541147  RH  022%=      5-min Rain = 0
KMC5 020309Z 21004KT 05/M15 A3033 RMK A01 T00531147  RH  022%=      5-min Rain = 0
KMC5 020310Z 21005KT 05/M15 A3033 RMK A01 T00531147  RH  022%=      5-min Rain = 0
KMC5 020311Z 21005KT 05/M15 A3033 RMK A01 T00531147  RH  022%=      5-min Rain = 0
KMC5 020312Z 20005KT 05/M15 A3033 RMK A01 T00521147  RH  022%=      5-min Rain = 0
KMC5 020313Z 20005KT 05/M15 A3033 RMK A01 T00521147  RH  022%=      5-min Rain = 0
KMC5 020314Z 20006KT 05/M15 A3033 RMK A01 T00521147  RH  022%=      5-min Rain = 0
KMC5 020315Z 20006KT 05/M15 A3033 RMK A01 T00511147  RH  022%=      5-min Rain = 0
KMC5 020316Z 19006KT 05/M15 A3033 RMK A01 T00511147  RH  022%=      5-min Rain = 0
KMC5 020317Z 19006KT 05/M15 A3033 RMK A01 T00521147  RH  022%=      5-min Rain = 0
KMC5 020318Z 19006KT 05/M15 A3033 RMK A01 T00511148  RH  022%=      5-min Rain = 0
KMC5 020319Z 19006KT 05/M15 A3033 RMK A01 T00511148  RH  022%=      5-min Rain = 0
KMC5 020320Z 20005KT 05/M15 A3033 RMK A01 T00511147  RH  022%=      5-min Rain = 0
KMC5 020321Z 20005KT 05/M15 A3033 RMK A01 T00501147  RH  023%=      5-min Rain = 0
KMC5 020322Z 20005KT 05/M15 A3033 RMK A01 T00491147  RH  023%=      5-min Rain = 0
KMC5 020323Z 20005KT 05/M15 A3033 RMK A01 T00491147  RH  023%=      5-min Rain = 0
KMC5 020324Z 21004KT 05/M15 A3033 RMK A01 T00491146  RH  023%=      5-min Rain = 0
KMC5 020325Z 21005KT 05/M15 A3033 RMK A01 T00481146  RH  023%=      5-min Rain = 0
KMC5 020326Z 21005KT 05/M15 A3033 RMK A01 T00461145  RH  024%=      5-min Rain = 0
KMC5 020327Z 21006KT 04/M14 A3033 RMK A01 T00431142  RH  025%=      5-min Rain = 0
KMC5 020328Z 22006KT 04/M14 A3033 RMK A01 T00381138  RH  026%=      5-min Rain = 0
KMC5 020329Z 22006KT 03/M13 A3033 RMK A01 T00321133  RH  029%=      5-min Rain = 0
KMC5 020330Z 20008KT 03/M13 A3033 RMK A01 T00271130  RH  030%=      5-min Rain = 0
KMC5 020331Z 21009KT 03/M13 A3033 RMK A01 T00271132  RH  030%=      5-min Rain = 0
KMC5 020332Z 21008KT 03/M13 A3033 RMK A01 T00291131  RH  030%=      5-min Rain = 0
KMC5 020333Z 21008KT 03/M13 A3033 RMK A01 T00291131  RH  030%=      5-min Rain = 0
KMC5 020334Z 21008KT 03/M13 A3033 RMK A01 T00291129  RH  030%=      5-min Rain = 0
KMC5 020335Z 21008KT 03/M13 A3033 RMK A01 T00281130  RH  030%=      5-min Rain = 0
KMC5 020336Z 20008KT 03/M13 A3033 RMK A01 T00261131  RH  030%=      5-min Rain = 0
KMC5 020337Z 21008KT 03/M13 A3033 RMK A01 T00261131  RH  030%=      5-min Rain = 0
KMC5 020338Z 21008KT 03/M13 A3033 RMK A01 T00261131  RH  030%=      5-min Rain = 0
KMC5 020339Z 21008KT 03/M13 A3033 RMK A01 T00261131  RH  030%=      5-min Rain = 0
KMC5 020340Z 21008KT 03/M13 A3033 RMK A01 T00261132  RH  030%=      5-min Rain = 0
KMC5 020341Z 21007KT 03/M13 A3033 RMK A01 T00261132  RH  030%=      5-min Rain = 0
KMC5 020342Z 21008KT 03/M13 A3033 RMK A01 T00251131  RH  030%=      5-min Rain = 0
KMC5 020343Z 21007KT 03/M13 A3033 RMK A01 T00251131  RH  031%=      5-min Rain = 0
KMC5 020344Z 21007KT 02/M13 A3033 RMK A01 T00241130  RH  031%=      5-min Rain = 0
KMC5 020345Z 21008KT 02/M13 A3033 RMK A01 T00221130  RH  031%=      5-min Rain = 0
KMC5 020346Z 22007KT 02/M13 A3033 RMK A01 T00221131  RH  031%=      5-min Rain = 0
KMC5 020347Z 21006KT 02/M13 A3033 RMK A01 T00211128  RH  032%=      5-min Rain = 0
KMC5 020348Z 21006KT 02/M13 A3033 RMK A01 T00201129  RH  032%=      5-min Rain = 0
KMC5 020349Z 21007KT 02/M13 A3033 RMK A01 T00191129  RH  033%=      5-min Rain = 0
KMC5 020350Z 22007KT 02/M13 A3033 RMK A01 T00181130  RH  032%=      5-min Rain = 0
KMC5 020351Z 21007KT 02/M13 A3033 RMK A01 T00181130  RH  032%=      5-min Rain = 0
KMC5 020352Z 21006KT 02/M13 A3033 RMK A01 T00191130  RH  032%=      5-min Rain = 0
KMC5 020353Z 21007KT 02/M13 A3033 RMK A01 T00191130  RH  032%=      5-min Rain = 0
KMC5 020354Z 21006KT 02/M13 A3033 RMK A01 T00181130  RH  032%=      5-min Rain = 0
KMC5 020355Z 21006KT 02/M13 A3033 RMK A01 T00171129  RH  033%=      5-min Rain = 0
KMC5 020356Z 22006KT 02/M13 A3033 RMK A01 T00171131  RH  032%=      5-min Rain = 0
KMC5 020357Z 22006KT 02/M13 A3033 RMK A01 T00181132  RH  032%=      5-min Rain = 0
KMC5 020358Z 21007KT 02/M13 A3033 RMK A01 T00191133  RH  032%=      5-min Rain = 0
KMC5 020359Z 22006KT 02/M13 A3033 RMK A01 T00201134  RH  031%=      5-min Rain = 0
KMC5 020400Z 22006KT 02/M13 A3033 RMK A01 T00211134  RH  031%=      5-min Rain = 0
KMC5 020401Z 22006KT 02/M14 A3033 RMK A01 T00221135  RH  030%=      5-min Rain = 0
KMC5 020402Z 22006KT 02/M13 A3033 RMK A01 T00231133  RH  030%=      5-min Rain = 0
KMC5 020403Z 22007KT 02/M13 A3033 RMK A01 T00211134  RH  031%=      5-min Rain = 0
KMC5 020404Z 23006KT 02/M14 A3033 RMK A01 T00211135  RH  030%=      5-min Rain = 0
KMC5 020405Z 23007KT 02/M13 A3033 RMK A01 T00211132  RH  031%=      5-min Rain = 0
KMC5 020406Z 23007KT 02/M13 A3033 RMK A01 T00181129  RH  033%=      5-min Rain = 0
KMC5 020407Z 23008KT 01/M13 A3033 RMK A01 T00141128  RH  034%=      5-min Rain = 0
KMC5 020408Z 23008KT 01/M13 A3033 RMK A01 T00121129  RH  034%=      5-min Rain = 0
KMC5 020409Z 23008KT 01/M13 A3033 RMK A01 T00121128  RH  034%=      5-min Rain = 0
KMC5 020410Z 22009KT 01/M13 A3033 RMK A01 T00141128  RH  034%=      5-min Rain = 0
KMC5 020411Z 22008KT 02/M13 A3033 RMK A01 T00171127  RH  033%=      5-min Rain = 0
KMC5 020412Z 22008KT 02/M13 A3033 RMK A01 T00191127  RH  033%=      5-min Rain = 0
KMC5 020413Z 22009KT 02/M13 A3033 RMK A01 T00201128  RH  032%=      5-min Rain = 0
KMC5 020414Z 22008KT 02/M13 A3033 RMK A01 T00211129  RH  032%=      5-min Rain = 0
KMC5 020415Z 23008KT 02/M13 A3033 RMK A01 T00211128  RH  032%=      5-min Rain = 0
KMC5 020416Z 23007KT 02/M13 A3033 RMK A01 T00201128  RH  032%=      5-min Rain = 0
KMC5 020417Z 22008KT 02/M13 A3033 RMK A01 T00201130  RH  032%=      5-min Rain = 0
KMC5 020418Z 22008KT 02/M13 A3033 RMK A01 T00211130  RH  032%=      5-min Rain = 0
KMC5 020419Z 22008KT 02/M13 A3033 RMK A01 T00221131  RH  031%=      5-min Rain = 0
KMC5 020420Z 22008KT 02/M13 A3034 RMK A01 T00221131  RH  031%=      5-min Rain = 0
KMC5 020421Z 22008KT 02/M13 A3034 RMK A01 T00221131  RH  031%=      5-min Rain = 0
KMC5 020422Z 22008KT 02/M13 A3034 RMK A01 T00221130  RH  031%=      5-min Rain = 0
KMC5 020423Z 22008KT 02/M13 A3034 RMK A01 T00221132  RH  031%=      5-min Rain = 0
KMC5 020424Z 22008KT 02/M13 A3034 RMK A01 T00231131  RH  031%=      5-min Rain = 0
KMC5 020425Z 22008KT 02/M13 A3034 RMK A01 T00231132  RH  031%=      5-min Rain = 0
KMC5 020426Z 22008KT 02/M13 A3034 RMK A01 T00231130  RH  031%=      5-min Rain = 0
KMC5 020427Z 22007KT 02/M13 A3034 RMK A01 T00221130  RH  031%=      5-min Rain = 0
KMC5 020428Z 23007KT 02/M13 A3034 RMK A01 T00211131  RH  031%=      5-min Rain = 0
KMC5 020429Z 22007KT 02/M13 A3034 RMK A01 T00211132  RH  031%=      5-min Rain = 0
KMC5 020430Z 23008KT 02/M13 A3034 RMK A01 T00211133  RH  031%=      5-min Rain = 0
KMC5 020431Z 23008KT 02/M13 A3034 RMK A01 T00221134  RH  031%=      5-min Rain = 0
KMC5 020432Z 22008KT 02/M13 A3034 RMK A01 T00221134  RH  031%=      5-min Rain = 0
KMC5 020433Z 22009KT 02/M13 A3033 RMK A01 T00211133  RH  031%=      5-min Rain = 0
KMC5 020434Z 22008KT 02/M13 A3033 RMK A01 T00211134  RH  031%=      5-min Rain = 0
KMC5 020435Z 22007KT 02/M13 A3033 RMK A01 T00211133  RH  031%=      5-min Rain = 0
KMC5 020436Z 22008KT 02/M13 A3033 RMK A01 T00201133  RH  031%=      5-min Rain = 0
KMC5 020437Z 22008KT 02/M13 A3033 RMK A01 T00201133  RH  031%=      5-min Rain = 0
KMC5 020438Z 22008KT 02/M13 A3033 RMK A01 T00201134  RH  031%=      5-min Rain = 0
KMC5 020439Z 22007KT 02/M13 A3033 RMK A01 T00201134  RH  031%=      5-min Rain = 0
KMC5 020440Z 22007KT 02/M14 A3033 RMK A01 T00201135  RH  031%=      5-min Rain = 0
KMC5 020441Z 22007KT 02/M13 A3033 RMK A01 T00211134  RH  031%=      5-min Rain = 0
KMC5 020442Z 22008KT 02/M13 A3033 RMK A01 T00201134  RH  031%=      5-min Rain = 0
KMC5 020443Z 22008KT 02/M14 A3033 RMK A01 T00191135  RH  031%=      5-min Rain = 0
KMC5 020444Z 22008KT 02/M13 A3033 RMK A01 T00191134  RH  031%=      5-min Rain = 0
KMC5 020445Z 22008KT 02/M13 A3033 RMK A01 T00181133  RH  032%=      5-min Rain = 0
KMC5 020446Z 22008KT 02/M13 A3033 RMK A01 T00171133  RH  032%=      5-min Rain = 0
KMC5 020447Z 22008KT 02/M13 A3033 RMK A01 T00171134  RH  032%=      5-min Rain = 0
KMC5 020448Z 22008KT 02/M13 A3033 RMK A01 T00171133  RH  032%=      5-min Rain = 0
KMC5 020449Z 23008KT 02/M13 A3033 RMK A01 T00171133  RH  032%=      5-min Rain = 0
KMC5 020450Z 23008KT 02/M13 A3033 RMK A01 T00151132  RH  033%=      5-min Rain = 0
KMC5 020451Z 23008KT 01/M13 A3033 RMK A01 T00121133  RH  033%=      5-min Rain = 0
KMC5 020452Z 23007KT 01/M13 A3033 RMK A01 T00111134  RH  033%=      5-min Rain = 0
KMC5 020453Z 22008KT 01/M13 A3033 RMK A01 T00101134  RH  033%=      5-min Rain = 0
KMC5 020454Z 22008KT 01/M13 A3033 RMK A01 T00101134  RH  033%=      5-min Rain = 0
KMC5 020455Z 22008KT 01/M13 A3033 RMK A01 T00111132  RH  034%=      5-min Rain = 0
KMC5 020456Z 23007KT 01/M13 A3033 RMK A01 T00101131  RH  034%=      5-min Rain = 0
KMC5 020457Z 23007KT 01/M13 A3033 RMK A01 T00091130  RH  034%=      5-min Rain = 0
KMC5 020458Z 23007KT 01/M13 A3033 RMK A01 T00081132  RH  034%=      5-min Rain = 0
KMC5 020459Z 22007KT 01/M13 A3033 RMK A01 T00081133  RH  034%=      5-min Rain = 0
KMC5 020500Z 23007KT 01/M13 A3033 RMK A01 T00091133  RH  034%=      5-min Rain = 0
KMC5 020501Z 23007KT 01/M13 A3033 RMK A01 T00091131  RH  034%=      5-min Rain = 0
KMC5 020502Z 23006KT 01/M13 A3033 RMK A01 T00091132  RH  034%=      5-min Rain = 0
KMC5 020503Z 23007KT 01/M13 A3033 RMK A01 T00091134  RH  033%=      5-min Rain = 0
KMC5 020504Z 23007KT 01/M13 A3033 RMK A01 T00101133  RH  034%=      5-min Rain = 0
KMC5 020505Z 23007KT 01/M13 A3033 RMK A01 T00101134  RH  033%=      5-min Rain = 0
KMC5 020506Z 23007KT 01/M14 A3033 RMK A01 T00091135  RH  033%=      5-min Rain = 0
KMC5 020507Z 24007KT 01/M14 A3033 RMK A01 T00091135  RH  033%=      5-min Rain = 0
KMC5 020508Z 24007KT 01/M14 A3033 RMK A01 T00091135  RH  033%=      5-min Rain = 0
KMC5 020509Z 24007KT 01/M13 A3033 RMK A01 T00081133  RH  034%=      5-min Rain = 0
KMC5 020510Z 23007KT 01/M13 A3033 RMK A01 T00051134  RH  034%=      5-min Rain = 0
KMC5 020511Z 23006KT 01/M14 A3032 RMK A01 T00051135  RH  034%=      5-min Rain = 0
KMC5 020512Z 23006KT 01/M14 A3032 RMK A01 T00071135  RH  034%=      5-min Rain = 0
KMC5 020513Z 23007KT 01/M14 A3032 RMK A01 T00091136  RH  033%=      5-min Rain = 0
KMC5 020514Z 23007KT 01/M14 A3032 RMK A01 T00111138  RH  032%=      5-min Rain = 0
KMC5 020515Z 23007KT 01/M14 A3032 RMK A01 T00141138  RH  031%=      5-min Rain = 0
KMC5 020516Z 23007KT 01/M14 A3032 RMK A01 T00141138  RH  031%=      5-min Rain = 0
KMC5 020517Z 23007KT 01/M14 A3032 RMK A01 T00131137  RH  032%=      5-min Rain = 0
KMC5 020518Z 23007KT 01/M14 A3032 RMK A01 T00121137  RH  032%=      5-min Rain = 0
KMC5 020519Z 23007KT 01/M14 A3032 RMK A01 T00101137  RH  033%=      5-min Rain = 0
KMC5 020520Z 23007KT 01/M14 A3032 RMK A01 T00081136  RH  033%=      5-min Rain = 0
KMC5 020521Z 23007KT 01/M14 A3032 RMK A01 T00081136  RH  033%=      5-min Rain = 0
KMC5 020522Z 23007KT 01/M13 A3032 RMK A01 T00081134  RH  034%=      5-min Rain = 0
KMC5 020523Z 24007KT 01/M14 A3032 RMK A01 T00081135  RH  033%=      5-min Rain = 0
KMC5 020524Z 24006KT 01/M14 A3032 RMK A01 T00091136  RH  033%=      5-min Rain = 0
KMC5 020525Z 24006KT 01/M14 A3032 RMK A01 T00101135  RH  033%=      5-min Rain = 0
KMC5 020526Z 24006KT 01/M14 A3032 RMK A01 T00091135  RH  033%=      5-min Rain = 0
KMC5 020527Z 25005KT 01/M14 A3032 RMK A01 T00091136  RH  033%=      5-min Rain = 0
KMC5 020528Z 25005KT 01/M14 A3032 RMK A01 T00081137  RH  033%=      5-min Rain = 0
KMC5 020529Z 25006KT 01/M14 A3032 RMK A01 T00081136  RH  033%=      5-min Rain = 0
KMC5 020530Z 25006KT 01/M14 A3032 RMK A01 T00071136  RH  033%=      5-min Rain = 0
KMC5 020531Z 24006KT 01/M14 A3032 RMK A01 T00071135  RH  034%=      5-min Rain = 0
KMC5 020532Z 25006KT 01/M14 A3032 RMK A01 T00071135  RH  034%=      5-min Rain = 0
KMC5 020533Z 24005KT 01/M14 A3032 RMK A01 T00081136  RH  033%=      5-min Rain = 0
KMC5 020534Z 25005KT 01/M14 A3032 RMK A01 T00091136  RH  033%=      5-min Rain = 0
KMC5 020535Z 25006KT 01/M14 A3032 RMK A01 T00081136  RH  033%=      5-min Rain = 0
KMC5 020536Z 25006KT 01/M14 A3032 RMK A01 T00081136  RH  033%=      5-min Rain = 0
KMC5 020537Z 25006KT 01/M14 A3032 RMK A01 T00081136  RH  033%=      5-min Rain = 0
KMC5 020538Z 25006KT 01/M14 A3032 RMK A01 T00081136  RH  033%=      5-min Rain = 0
KMC5 020539Z 25006KT 01/M14 A3032 RMK A01 T00071135  RH  034%=      5-min Rain = 0
KMC5 020540Z 25006KT 01/M14 A3031 RMK A01 T00061136  RH  034%=      5-min Rain = 0
KMC5 020541Z 25005KT 01/M14 A3031 RMK A01 T00071136  RH  033%=      5-min Rain = 0
KMC5 020542Z 25006KT 01/M14 A3031 RMK A01 T00071136  RH  033%=      5-min Rain = 0
KMC5 020543Z 26006KT 01/M14 A3031 RMK A01 T00071135  RH  034%=      5-min Rain = 0
KMC5 020544Z 25006KT 01/M14 A3031 RMK A01 T00061136  RH  033%=      5-min Rain = 0
KMC5 020545Z 25006KT 01/M14 A3031 RMK A01 T00071136  RH  033%=      5-min Rain = 0
KMC5 020546Z 26006KT 01/M14 A3031 RMK A01 T00071136  RH  033%=      5-min Rain = 0
KMC5 020547Z 26006KT 01/M14 A3031 RMK A01 T00071136  RH  033%=      5-min Rain = 0
KMC5 020548Z 25007KT 01/M14 A3031 RMK A01 T00061135  RH  034%=      5-min Rain = 0
KMC5 020549Z 25007KT 01/M14 A3031 RMK A01 T00051135  RH  034%=      5-min Rain = 0
KMC5 020550Z 25006KT 00/M13 A3031 RMK A01 T00031134  RH  035%=      5-min Rain = 0
KMC5 020551Z 25007KT 00/M14 A3031 RMK A01 T00031135  RH  035%=      5-min Rain = 0
KMC5 020552Z 25007KT 00/M13 A3031 RMK A01 T00031133  RH  035%=      5-min Rain = 0
KMC5 020553Z 25006KT 00/M13 A3031 RMK A01 T00031134  RH  035%=      5-min Rain = 0
KMC5 020554Z 25007KT 00/M13 A3031 RMK A01 T00031133  RH  035%=      5-min Rain = 0
KMC5 020555Z 25006KT 00/M14 A3031 RMK A01 T00031135  RH  035%=      5-min Rain = 0
KMC5 020556Z 25006KT 00/M13 A3031 RMK A01 T00031133  RH  035%=      5-min Rain = 0
KMC5 020557Z 25006KT 00/M13 A3031 RMK A01 T00011133  RH  036%=      5-min Rain = 0
KMC5 020558Z 25006KT M00/M13 A3031 RMK A01 T10011134  RH  036%=      5-min Rain = 0
KMC5 020559Z 25006KT M00/M13 A3031 RMK A01 T10011134  RH  036%=      5-min Rain = 0

Page generated in 0.0649 seconds.